Observation data for Boys Ranch on 05/24/2020      Previous  Date  Next       Current Mesonet Observations  Soil Data  Daily Summary Page  Observations in Plain Language
KBY1 240500Z 14010KT 21/11 A2979 RMK A01 T02060105  RH  052%=      5-min Rain = 0
KBY1 240501Z 12009KT 21/11 A2979 RMK A01 T02060105  RH  052%=      5-min Rain = 0
KBY1 240502Z 12005KT 21/11 A2979 RMK A01 T02070105  RH  052%=      5-min Rain = 0
KBY1 240503Z 10008KT 21/11 A2979 RMK A01 T02070106  RH  052%=      5-min Rain = 0
KBY1 240504Z 09008KT 21/11 A2978 RMK A01 T02060105  RH  052%=      5-min Rain = 0
KBY1 240505Z 10005KT 21/11 A2978 RMK A01 T02050105  RH  053%=      5-min Rain = 0
KBY1 240506Z 10007KT 21/11 A2978 RMK A01 T02050105  RH  053%=      5-min Rain = 0
KBY1 240507Z 10007KT 21/11 A2978 RMK A01 T02050106  RH  053%=      5-min Rain = 0
KBY1 240508Z 11007KT 20/11 A2978 RMK A01 T02030105  RH  053%=      5-min Rain = 0
KBY1 240509Z 11007KT 20/11 A2979 RMK A01 T02030106  RH  053%=      5-min Rain = 0
KBY1 240510Z 11006KT 20/11 A2979 RMK A01 T02030106  RH  054%=      5-min Rain = 0
KBY1 240511Z 10007KT 20/11 A2979 RMK A01 T02030105  RH  053%=      5-min Rain = 0
KBY1 240512Z 10006KT 20/11 A2979 RMK A01 T02030106  RH  054%=      5-min Rain = 0
KBY1 240513Z 08004KT 20/11 A2979 RMK A01 T02020106  RH  054%=      5-min Rain = 0
KBY1 240514Z 09005KT 20/11 A2979 RMK A01 T02010106  RH  054%=      5-min Rain = 0
KBY1 240515Z 09006KT 20/11 A2979 RMK A01 T02000106  RH  054%=      5-min Rain = 0
KBY1 240516Z 10006KT 20/11 A2979 RMK A01 T01990106  RH  055%=      5-min Rain = 0
KBY1 240517Z 10005KT 20/11 A2979 RMK A01 T01980106  RH  055%=      5-min Rain = 0
KBY1 240518Z 10006KT 20/11 A2979 RMK A01 T01980106  RH  055%=      5-min Rain = 0
KBY1 240519Z 11005KT 20/11 A2979 RMK A01 T01980106  RH  055%=      5-min Rain = 0
KBY1 240520Z 09005KT 20/11 A2979 RMK A01 T01980106  RH  055%=      5-min Rain = 0
KBY1 240521Z 09006KT 20/11 A2979 RMK A01 T01980106  RH  055%=      5-min Rain = 0
KBY1 240522Z 09006KT 20/11 A2979 RMK A01 T01980106  RH  055%=      5-min Rain = 0
KBY1 240523Z 10006KT 20/11 A2979 RMK A01 T01980106  RH  055%=      5-min Rain = 0
KBY1 240524Z 10006KT 20/11 A2979 RMK A01 T01980105  RH  055%=      5-min Rain = 0
KBY1 240525Z 11007KT 20/11 A2979 RMK A01 T01970106  RH  055%=      5-min Rain = 0
KBY1 240526Z 13008KT 20/11 A2979 RMK A01 T01970106  RH  055%=      5-min Rain = 0
KBY1 240527Z 14008KT 20/11 A2979 RMK A01 T01990106  RH  055%=      5-min Rain = 0
KBY1 240528Z 13007G12KT 20/11 A2979 RMK A01 T02000106  RH  055%=      5-min Rain = 0
KBY1 240529Z 14010KT 20/11 A2979 RMK A01 T02000106  RH  054%=      5-min Rain = 0
KBY1 240530Z 11006KT 20/11 A2979 RMK A01 T02010106  RH  054%=      5-min Rain = 0
KBY1 240531Z 12006KT 20/11 A2979 RMK A01 T02010106  RH  054%=      5-min Rain = 0
KBY1 240532Z 12008KT 20/11 A2979 RMK A01 T02000106  RH  054%=      5-min Rain = 0
KBY1 240533Z 10005KT 20/11 A2979 RMK A01 T02000106  RH  054%=      5-min Rain = 0
KBY1 240534Z 11009G14KT 20/11 A2979 RMK A01 T02000106  RH  055%=      5-min Rain = 0
KBY1 240535Z 14011KT 20/11 A2979 RMK A01 T01990106  RH  055%=      5-min Rain = 0
KBY1 240536Z 13009KT 20/11 A2979 RMK A01 T02000107  RH  055%=      5-min Rain = 0
KBY1 240537Z 15009KT 20/11 A2979 RMK A01 T02000106  RH  055%=      5-min Rain = 0
KBY1 240538Z 14007KT 20/11 A2979 RMK A01 T02000107  RH  055%=      5-min Rain = 0
KBY1 240539Z 15008KT 20/11 A2979 RMK A01 T02010107  RH  055%=      5-min Rain = 0
KBY1 240540Z 12005KT 20/11 A2979 RMK A01 T02010108  RH  055%=      5-min Rain = 0
KBY1 240541Z 14006KT 20/11 A2979 RMK A01 T02010108  RH  055%=      5-min Rain = 0
KBY1 240542Z 14006KT 20/11 A298 RMK A01 T02000107  RH  055%=      5-min Rain = 0
KBY1 240543Z 13005KT 20/11 A298 RMK A01 T02000108  RH  055%=      5-min Rain = 0
KBY1 240544Z 14002KT 20/11 A298 RMK A01 T02000108  RH  055%=      5-min Rain = 0
KBY1 240545Z 14002KT 20/11 A298 RMK A01 T02000108  RH  055%=      5-min Rain = 0
KBY1 240546Z 13003KT 20/11 A298 RMK A01 T01990108  RH  055%=      5-min Rain = 0
KBY1 240547Z 13004KT 20/11 A298 RMK A01 T01990108  RH  056%=      5-min Rain = 0
KBY1 240548Z 11004KT 20/11 A298 RMK A01 T01990108  RH  056%=      5-min Rain = 0
KBY1 240549Z 12006KT 20/11 A298 RMK A01 T01990108  RH  056%=      5-min Rain = 0
KBY1 240550Z 10005KT 20/11 A298 RMK A01 T01990108  RH  056%=      5-min Rain = 0
KBY1 240551Z 08004KT 20/11 A2981 RMK A01 T01980108  RH  056%=      5-min Rain = 0
KBY1 240552Z 10003KT 20/11 A2981 RMK A01 T01970107  RH  056%=      5-min Rain = 0
KBY1 240553Z 13002KT 20/11 A2981 RMK A01 T01960108  RH  057%=      5-min Rain = 0
KBY1 240554Z 07002KT 20/11 A2981 RMK A01 T01970108  RH  057%=      5-min Rain = 0
KBY1 240555Z 10002KT 20/11 A2981 RMK A01 T01960107  RH  056%=      5-min Rain = 0
KBY1 240556Z 12003KT 20/11 A2981 RMK A01 T01970108  RH  056%=      5-min Rain = 0
KBY1 240557Z 13003KT 20/11 A2981 RMK A01 T01960108  RH  056%=      5-min Rain = 0
KBY1 240558Z 12003KT 20/11 A2981 RMK A01 T01960108  RH  057%=      5-min Rain = 0
KBY1 240559Z 10003KT 20/11 A2981 RMK A01 T01950108  RH  057%=      5-min Rain = 0
KBY1 240600Z 09004KT 19/11 A2981 RMK A01 T01940108  RH  057%=      5-min Rain = 0
KBY1 240601Z 10006KT 20/11 A2981 RMK A01 T01950108  RH  057%=      5-min Rain = 0
KBY1 240602Z 11005KT 20/11 A2981 RMK A01 T01960108  RH  057%=      5-min Rain = 0
KBY1 240603Z 09003KT 20/11 A2981 RMK A01 T01980108  RH  056%=      5-min Rain = 0
KBY1 240604Z 09004KT 20/11 A2981 RMK A01 T01980107  RH  056%=      5-min Rain = 0
KBY1 240605Z 08006KT 20/11 A2981 RMK A01 T01960107  RH  056%=      5-min Rain = 0
KBY1 240606Z 08004KT 20/11 A2981 RMK A01 T01950107  RH  057%=      5-min Rain = 0
KBY1 240607Z 09003KT 20/11 A2981 RMK A01 T01960107  RH  056%=      5-min Rain = 0
KBY1 240608Z 11004KT 20/11 A2981 RMK A01 T01950107  RH  057%=      5-min Rain = 0
KBY1 240609Z 11006KT 19/11 A2981 RMK A01 T01940107  RH  057%=      5-min Rain = 0
KBY1 240610Z 09007KT 19/11 A298 RMK A01 T01930107  RH  057%=      5-min Rain = 0
KBY1 240611Z 11007KT 19/11 A298 RMK A01 T01930107  RH  057%=      5-min Rain = 0
KBY1 240612Z 11008KT 19/11 A298 RMK A01 T01930107  RH  057%=      5-min Rain = 0
KBY1 240613Z 12009KT 19/11 A298 RMK A01 T01920107  RH  058%=      5-min Rain = 0
KBY1 240614Z 11009KT 19/11 A2979 RMK A01 T01930108  RH  058%=      5-min Rain = 0
KBY1 240615Z 12008KT 19/11 A2979 RMK A01 T01920107  RH  058%=      5-min Rain = 0
KBY1 240616Z 13009KT 19/11 A2979 RMK A01 T01920107  RH  058%=      5-min Rain = 0
KBY1 240617Z 13009KT 19/11 A2979 RMK A01 T01930107  RH  058%=      5-min Rain = 0
KBY1 240618Z 15010KT 19/11 A2979 RMK A01 T01930107  RH  057%=      5-min Rain = 0
KBY1 240619Z 14009KT 19/11 A2979 RMK A01 T01930107  RH  058%=      5-min Rain = 0
KBY1 240620Z 13010KT 19/11 A2979 RMK A01 T01920107  RH  058%=      5-min Rain = 0
KBY1 240621Z 14009KT 19/11 A2979 RMK A01 T01920107  RH  058%=      5-min Rain = 0
KBY1 240622Z 13012KT 19/11 A2979 RMK A01 T01920107  RH  058%=      5-min Rain = 0
KBY1 240623Z 13011KT 19/11 A2979 RMK A01 T01920107  RH  058%=      5-min Rain = 0
KBY1 240624Z 15011KT 19/11 A2979 RMK A01 T01920107  RH  058%=      5-min Rain = 0
KBY1 240625Z 13011KT 19/11 A2979 RMK A01 T01920107  RH  058%=      5-min Rain = 0
KBY1 240626Z 14009KT 19/11 A2979 RMK A01 T01930107  RH  057%=      5-min Rain = 0
KBY1 240627Z 15012KT 19/11 A2979 RMK A01 T01930107  RH  057%=      5-min Rain = 0
KBY1 240628Z 14011KT 19/11 A2979 RMK A01 T01930107  RH  057%=      5-min Rain = 0
KBY1 240629Z 14011KT 19/11 A2979 RMK A01 T01930106  RH  057%=      5-min Rain = 0
KBY1 240630Z 14015KT 19/11 A2978 RMK A01 T01930107  RH  057%=      5-min Rain = 0
KBY1 240631Z 14013KT 19/11 A2978 RMK A01 T01930106  RH  057%=      5-min Rain = 0
KBY1 240632Z 14011KT 19/11 A2978 RMK A01 T01940106  RH  057%=      5-min Rain = 0
KBY1 240633Z 14012KT 19/11 A2978 RMK A01 T01940106  RH  057%=      5-min Rain = 0
KBY1 240634Z 14010KT 19/11 A2978 RMK A01 T01940106  RH  057%=      5-min Rain = 0
KBY1 240635Z 15010KT 19/11 A2978 RMK A01 T01940106  RH  057%=      5-min Rain = 0
KBY1 240636Z 15012KT 19/11 A2978 RMK A01 T01930106  RH  057%=      5-min Rain = 0
KBY1 240637Z 15010KT 19/11 A2978 RMK A01 T01930106  RH  057%=      5-min Rain = 0
KBY1 240638Z 15009KT 19/11 A2978 RMK A01 T01930106  RH  057%=      5-min Rain = 0
KBY1 240639Z 15009KT 19/11 A2978 RMK A01 T01930105  RH  057%=      5-min Rain = 0
KBY1 240640Z 15008KT 19/11 A2979 RMK A01 T01930106  RH  057%=      5-min Rain = 0
KBY1 240641Z 16005KT 19/11 A2979 RMK A01 T01940106  RH  057%=      5-min Rain = 0
KBY1 240642Z 16005KT 19/11 A2979 RMK A01 T01930106  RH  057%=      5-min Rain = 0
KBY1 240643Z 15005KT 19/11 A2979 RMK A01 T01920106  RH  057%=      5-min Rain = 0
KBY1 240644Z 15005KT 19/11 A2979 RMK A01 T01910105  RH  057%=      5-min Rain = 0
KBY1 240645Z 18003KT 19/11 A2979 RMK A01 T01910105  RH  057%=      5-min Rain = 0
KBY1 240646Z 17004KT 19/11 A2979 RMK A01 T01910105  RH  057%=      5-min Rain = 0
KBY1 240647Z 16006KT 19/11 A2979 RMK A01 T01900105  RH  058%=      5-min Rain = 0
KBY1 240648Z 14006KT 19/11 A2979 RMK A01 T01900105  RH  058%=      5-min Rain = 0
KBY1 240649Z 17007KT 19/11 A2979 RMK A01 T01910105  RH  058%=      5-min Rain = 0
KBY1 240650Z 18008KT 19/11 A2979 RMK A01 T01920106  RH  057%=      5-min Rain = 0
KBY1 240651Z 17008KT 19/11 A2978 RMK A01 T01910105  RH  058%=      5-min Rain = 0
KBY1 240652Z 18009KT 19/11 A2978 RMK A01 T01920106  RH  057%=      5-min Rain = 0
KBY1 240653Z 16007KT 19/11 A2978 RMK A01 T01920106  RH  057%=      5-min Rain = 0
KBY1 240654Z 18009KT 19/11 A2979 RMK A01 T01910106  RH  058%=      5-min Rain = 0
KBY1 240655Z 17008KT 19/11 A2978 RMK A01 T01900106  RH  058%=      5-min Rain = 0
KBY1 240656Z 17006KT 19/11 A2978 RMK A01 T01890106  RH  058%=      5-min Rain = 0
KBY1 240657Z 16003KT 19/11 A2978 RMK A01 T01910106  RH  058%=      5-min Rain = 0
KBY1 240658Z 17004KT 19/11 A2978 RMK A01 T01930106  RH  057%=      5-min Rain = 0
KBY1 240659Z 17008KT 19/11 A2978 RMK A01 T01930106  RH  057%=      5-min Rain = 0
KBY1 240700Z 18010KT 19/11 A2978 RMK A01 T01920106  RH  058%=      5-min Rain = 0
KBY1 240701Z 18010KT 19/11 A2978 RMK A01 T01920106  RH  058%=      5-min Rain = 0
KBY1 240702Z 19008KT 19/11 A2977 RMK A01 T01910107  RH  058%=      5-min Rain = 0
KBY1 240703Z 18009KT 19/11 A2978 RMK A01 T01910107  RH  058%=      5-min Rain = 0
KBY1 240704Z 17008KT 19/11 A2978 RMK A01 T01920107  RH  058%=      5-min Rain = 0
KBY1 240705Z 17010KT 19/11 A2978 RMK A01 T01910107  RH  058%=      5-min Rain = 0
KBY1 240706Z 17011KT 19/11 A2978 RMK A01 T01910107  RH  058%=      5-min Rain = 0
KBY1 240707Z 17008KT 19/11 A2978 RMK A01 T01930108  RH  058%=      5-min Rain = 0
KBY1 240708Z 17009KT 19/11 A2978 RMK A01 T01930107  RH  058%=      5-min Rain = 0
KBY1 240709Z 15007KT 19/11 A2978 RMK A01 T01930107  RH  058%=      5-min Rain = 0
KBY1 240710Z 15007KT 19/11 A2978 RMK A01 T01920107  RH  058%=      5-min Rain = 0
KBY1 240711Z 15010KT 19/11 A2978 RMK A01 T01900107  RH  058%=      5-min Rain = 0
KBY1 240712Z 16012KT 19/11 A2978 RMK A01 T01910108  RH  059%=      5-min Rain = 0
KBY1 240713Z 16010KT 19/11 A2978 RMK A01 T01910108  RH  058%=      5-min Rain = 0
KBY1 240714Z 15010KT 19/11 A2978 RMK A01 T01910108  RH  058%=      5-min Rain = 0
KBY1 240715Z 15008KT 19/11 A2978 RMK A01 T01910108  RH  058%=      5-min Rain = 0
KBY1 240716Z 15007KT 19/11 A2978 RMK A01 T01920108  RH  058%=      5-min Rain = 0
KBY1 240717Z 15005KT 19/11 A2978 RMK A01 T01920108  RH  058%=      5-min Rain = 0
KBY1 240718Z 16006KT 19/11 A2978 RMK A01 T01900108  RH  059%=      5-min Rain = 0
KBY1 240719Z 13006KT 19/11 A2978 RMK A01 T01890108  RH  059%=      5-min Rain = 0
KBY1 240720Z 14006KT 19/11 A2978 RMK A01 T01890108  RH  059%=      5-min Rain = 0
KBY1 240721Z 15009KT 19/11 A2978 RMK A01 T01890108  RH  059%=      5-min Rain = 0
KBY1 240722Z 13011KT 19/11 A2978 RMK A01 T01910109  RH  059%=      5-min Rain = 0
KBY1 240723Z 15007KT 19/11 A2978 RMK A01 T01920109  RH  058%=      5-min Rain = 0
KBY1 240724Z 18005KT 19/11 A2978 RMK A01 T01930109  RH  058%=      5-min Rain = 0
KBY1 240725Z 16006KT 19/11 A2978 RMK A01 T01930109  RH  058%=      5-min Rain = 0
KBY1 240726Z 14005KT 19/11 A2978 RMK A01 T01930109  RH  059%=      5-min Rain = 0
KBY1 240727Z 16007KT 19/11 A2978 RMK A01 T01930109  RH  059%=      5-min Rain = 0
KBY1 240728Z 13005KT 19/11 A2978 RMK A01 T01930109  RH  058%=      5-min Rain = 0
KBY1 240729Z 12007KT 19/11 A2978 RMK A01 T01940109  RH  058%=      5-min Rain = 0
KBY1 240730Z 10004KT 20/11 A2978 RMK A01 T01950110  RH  058%=      5-min Rain = 0
KBY1 240731Z 11004KT 20/11 A2978 RMK A01 T01950109  RH  057%=      5-min Rain = 0
KBY1 240732Z 12004KT 20/11 A2978 RMK A01 T01960109  RH  057%=      5-min Rain = 0
KBY1 240733Z 14005KT 20/11 A2978 RMK A01 T01950110  RH  058%=      5-min Rain = 0
KBY1 240734Z 12006KT 20/11 A2978 RMK A01 T01950110  RH  058%=      5-min Rain = 0
KBY1 240735Z 12005KT 20/11 A2978 RMK A01 T01950111  RH  058%=      5-min Rain = 0
KBY1 240736Z 13004KT 20/11 A2978 RMK A01 T01960110  RH  058%=      5-min Rain = 0
KBY1 240737Z 06006KT 20/11 A2978 RMK A01 T01970110  RH  057%=      5-min Rain = 0
KBY1 240738Z 07003KT 20/11 A2978 RMK A01 T01960109  RH  057%=      5-min Rain = 0
KBY1 240739Z 11003KT 19/11 A2978 RMK A01 T01940109  RH  058%=      5-min Rain = 0
KBY1 240740Z 08005KT 19/11 A2978 RMK A01 T01930110  RH  058%=      5-min Rain = 0
KBY1 240741Z 10005KT 19/11 A2978 RMK A01 T01930110  RH  059%=      5-min Rain = 0
KBY1 240742Z 10005KT 19/11 A2978 RMK A01 T01930110  RH  059%=      5-min Rain = 0
KBY1 240743Z 09006KT 20/11 A2978 RMK A01 T01950110  RH  058%=      5-min Rain = 0
KBY1 240744Z 09004KT 19/11 A2978 RMK A01 T01940111  RH  059%=      5-min Rain = 0
KBY1 240745Z 07004KT 19/11 A2978 RMK A01 T01940111  RH  058%=      5-min Rain = 0
KBY1 240746Z 04004KT 19/11 A2978 RMK A01 T01940111  RH  058%=      5-min Rain = 0
KBY1 240747Z 05002KT 20/11 A2978 RMK A01 T01950110  RH  058%=      5-min Rain = 0
KBY1 240748Z 18000KT 19/11 A2978 RMK A01 T01940110  RH  058%=      5-min Rain = 0
KBY1 240749Z 00000KT 19/11 A2978 RMK A01 T01940111  RH  059%=      5-min Rain = 0
KBY1 240750Z 01002KT 19/11 A2978 RMK A01 T01940110  RH  058%=      5-min Rain = 0
KBY1 240751Z 02002KT 19/11 A2978 RMK A01 T01940110  RH  058%=      5-min Rain = 0
KBY1 240752Z 04002KT 19/11 A2978 RMK A01 T01930110  RH  059%=      5-min Rain = 0
KBY1 240753Z 02004KT 19/11 A2978 RMK A01 T01930110  RH  059%=      5-min Rain = 0
KBY1 240754Z 03007KT 19/11 A2978 RMK A01 T01930110  RH  059%=      5-min Rain = 0
KBY1 240755Z 01007KT 19/11 A2978 RMK A01 T01920110  RH  059%=      5-min Rain = 0
KBY1 240756Z 32004KT 19/11 A2978 RMK A01 T01900110  RH  060%=      5-min Rain = 0
KBY1 240757Z 29001KT 19/11 A2978 RMK A01 T01910111  RH  060%=      5-min Rain = 0
KBY1 240758Z 34002KT 19/11 A2978 RMK A01 T01930113  RH  060%=      5-min Rain = 0
KBY1 240759Z 18004KT 19/11 A2978 RMK A01 T01930113  RH  059%=      5-min Rain = 0
KBY1 240800Z 22004KT 20/12 A2977 RMK A01 T01950115  RH  060%=      5-min Rain = 0
KBY1 240801Z 18006KT 20/12 A2977 RMK A01 T01980116  RH  059%=      5-min Rain = 0
KBY1 240802Z 18006KT 20/12 A2977 RMK A01 T01990116  RH  059%=      5-min Rain = 0
KBY1 240803Z 18007KT 20/12 A2977 RMK A01 T02000116  RH  059%=      5-min Rain = 0
KBY1 240804Z 13006KT 20/12 A2977 RMK A01 T02000116  RH  058%=      5-min Rain = 0
KBY1 240805Z 16004KT 20/12 A2977 RMK A01 T02000116  RH  058%=      5-min Rain = 0
KBY1 240806Z 18010G17KT 20/12 A2977 RMK A01 T02000116  RH  058%=      5-min Rain = 0
KBY1 240807Z 18014G20KT 20/12 A2977 RMK A01 T02010117  RH  058%=      5-min Rain = 0
KBY1 240808Z 15009G14KT 20/12 A2977 RMK A01 T02040118  RH  058%=      5-min Rain = 0
KBY1 240809Z 16006KT 20/12 A2977 RMK A01 T02030117  RH  058%=      5-min Rain = 0
KBY1 240810Z 17007KT 20/12 A2977 RMK A01 T02030118  RH  058%=      5-min Rain = 0
KBY1 240811Z 17007KT 20/12 A2978 RMK A01 T02030118  RH  058%=      5-min Rain = 0
KBY1 240812Z 17009KT 20/12 A2978 RMK A01 T02020118  RH  058%=      5-min Rain = 0
KBY1 240813Z 18012KT 20/12 A2978 RMK A01 T02020118  RH  058%=      5-min Rain = 0
KBY1 240814Z 17009KT 20/12 A2978 RMK A01 T02030119  RH  058%=      5-min Rain = 0
KBY1 240815Z 17010KT 20/12 A2978 RMK A01 T02030118  RH  058%=      5-min Rain = 0
KBY1 240816Z 17009KT 20/12 A2978 RMK A01 T02030119  RH  058%=      5-min Rain = 0
KBY1 240817Z 18009G15KT 20/12 A2978 RMK A01 T02030119  RH  058%=      5-min Rain = 0
KBY1 240818Z 18017G24KT 20/12 A2978 RMK A01 T02040119  RH  058%=      5-min Rain = 0
KBY1 240819Z 17012G18KT 20/12 A2978 RMK A01 T02040119  RH  058%=      5-min Rain = 0
KBY1 240820Z 16015G21KT 21/12 A2978 RMK A01 T02050120  RH  058%=      5-min Rain = 0
KBY1 240821Z 18014KT 20/12 A2978 RMK A01 T02040120  RH  058%=      5-min Rain = 0
KBY1 240822Z 17012G17KT 20/12 A2978 RMK A01 T02040120  RH  058%=      5-min Rain = 0
KBY1 240823Z 17012KT 20/12 A2978 RMK A01 T02040120  RH  058%=      5-min Rain = 0
KBY1 240824Z 18009G14KT 20/12 A2978 RMK A01 T02040120  RH  058%=      5-min Rain = 0
KBY1 240825Z 16011G16KT 20/12 A2978 RMK A01 T02040120  RH  059%=      5-min Rain = 0
KBY1 240826Z 17010G15KT 20/12 A2978 RMK A01 T02040121  RH  059%=      5-min Rain = 0
KBY1 240827Z 16010G15KT 20/12 A2978 RMK A01 T02040121  RH  059%=      5-min Rain = 0
KBY1 240828Z 17010KT 20/12 A2978 RMK A01 T02030121  RH  059%=      5-min Rain = 0
KBY1 240829Z 17010G15KT 20/12 A2978 RMK A01 T02030121  RH  059%=      5-min Rain = 0
KBY1 240830Z 17008KT 20/12 A2978 RMK A01 T02030121  RH  059%=      5-min Rain = 0
KBY1 240831Z 15010KT 20/12 A2978 RMK A01 T02030121  RH  059%=      5-min Rain = 0
KBY1 240832Z 16013KT 20/12 A2978 RMK A01 T02030121  RH  059%=      5-min Rain = 0
KBY1 240833Z 17014KT 20/12 A2978 RMK A01 T02030121  RH  059%=      5-min Rain = 0
KBY1 240834Z 17010KT 20/12 A2978 RMK A01 T02030121  RH  059%=      5-min Rain = 0
KBY1 240835Z 16009KT 20/12 A2978 RMK A01 T02030121  RH  059%=      5-min Rain = 0
KBY1 240836Z 16007KT 20/12 A2978 RMK A01 T02020121  RH  059%=      5-min Rain = 0
KBY1 240837Z 16007KT 20/12 A2978 RMK A01 T02020121  RH  060%=      5-min Rain = 0
KBY1 240838Z 15005KT 20/12 A2978 RMK A01 T02010121  RH  060%=      5-min Rain = 0
KBY1 240839Z 14007KT 20/12 A2978 RMK A01 T02000121  RH  060%=      5-min Rain = 0
KBY1 240840Z 17010KT 20/12 A2978 RMK A01 T01990121  RH  061%=      5-min Rain = 0
KBY1 240841Z 16010KT 20/12 A2978 RMK A01 T01990121  RH  061%=      5-min Rain = 0
KBY1 240842Z 16009G14KT 20/12 A2979 RMK A01 T02000122  RH  061%=      5-min Rain = 0
KBY1 240843Z 14008G13KT 20/12 A2979 RMK A01 T02000121  RH  061%=      5-min Rain = 0
KBY1 240844Z 16007KT 20/12 A2979 RMK A01 T02010122  RH  060%=      5-min Rain = 0
KBY1 240845Z 16007G13KT 20/12 A2979 RMK A01 T02010122  RH  060%=      5-min Rain = 0
KBY1 240846Z 15008KT 20/12 A2979 RMK A01 T02000122  RH  061%=      5-min Rain = 0
KBY1 240847Z 15007KT 20/12 A2979 RMK A01 T02000122  RH  061%=      5-min Rain = 0
KBY1 240848Z 16011KT 20/12 A2979 RMK A01 T02000122  RH  061%=      5-min Rain = 0
KBY1 240849Z 15011KT 20/12 A2979 RMK A01 T02000122  RH  061%=      5-min Rain = 0
KBY1 240850Z 16010KT 20/12 A2979 RMK A01 T02000122  RH  061%=      5-min Rain = 0
KBY1 240851Z 16011KT 20/12 A2979 RMK A01 T02000122  RH  061%=      5-min Rain = 0
KBY1 240852Z 15007KT 20/12 A2979 RMK A01 T02000122  RH  061%=      5-min Rain = 0
KBY1 240853Z 16007KT 20/12 A2979 RMK A01 T02000122  RH  061%=      5-min Rain = 0
KBY1 240854Z 16011KT 20/12 A2979 RMK A01 T02000122  RH  061%=      5-min Rain = 0
KBY1 240855Z 16007KT 20/12 A2979 RMK A01 T02000122  RH  061%=      5-min Rain = 0
KBY1 240856Z 17009G15KT 20/12 A2979 RMK A01 T02000122  RH  061%=      5-min Rain = 0
KBY1 240857Z 17011KT 20/12 A2979 RMK A01 T01990122  RH  061%=      5-min Rain = 0
KBY1 240858Z 17008KT 20/12 A2979 RMK A01 T01990122  RH  061%=      5-min Rain = 0
KBY1 240859Z 17008G13KT 20/12 A2979 RMK A01 T01990122  RH  061%=      5-min Rain = 0
KBY1 240900Z 17009KT 20/12 A2979 RMK A01 T01990122  RH  061%=      5-min Rain = 0
KBY1 240901Z 17013G19KT 20/12 A2979 RMK A01 T01990122  RH  061%=      5-min Rain = 0
KBY1 240902Z 16011KT 20/12 A2979 RMK A01 T01980122  RH  061%=      5-min Rain = 0
KBY1 240903Z 17010KT 20/12 A2979 RMK A01 T01980122  RH  061%=      5-min Rain = 0
KBY1 240904Z 17009KT 20/12 A2979 RMK A01 T01980122  RH  061%=      5-min Rain = 0
KBY1 240905Z 18010KT 20/12 A2979 RMK A01 T01990122  RH  061%=      5-min Rain = 0
KBY1 240906Z 17013G19KT 20/12 A2978 RMK A01 T01980122  RH  061%=      5-min Rain = 0
KBY1 240907Z 17016G21KT 20/12 A2978 RMK A01 T01980122  RH  061%=      5-min Rain = 0
KBY1 240908Z 18012G20KT 20/12 A2978 RMK A01 T01980122  RH  061%=      5-min Rain = 0
KBY1 240909Z 18011KT 20/12 A2978 RMK A01 T01990122  RH  061%=      5-min Rain = 0
KBY1 240910Z 18010KT 20/12 A2978 RMK A01 T01990122  RH  061%=      5-min Rain = 0
KBY1 240911Z 17012KT 20/12 A2978 RMK A01 T01980122  RH  061%=      5-min Rain = 0
KBY1 240912Z 18012G17KT 20/12 A2978 RMK A01 T01980122  RH  061%=      5-min Rain = 0
KBY1 240913Z 18013G22KT 20/12 A2978 RMK A01 T01980122  RH  061%=      5-min Rain = 0
KBY1 240914Z 18014G21KT 20/12 A2978 RMK A01 T01980122  RH  061%=      5-min Rain = 0
KBY1 240915Z 19014KT 20/12 A2978 RMK A01 T01990122  RH  061%=      5-min Rain = 0
KBY1 240916Z 17010KT 20/12 A2978 RMK A01 T02000122  RH  061%=      5-min Rain = 0
KBY1 240917Z 17007G12KT 20/12 A2978 RMK A01 T01990122  RH  061%=      5-min Rain = 0
KBY1 240918Z 19010G15KT 20/12 A2978 RMK A01 T01980122  RH  061%=      5-min Rain = 0
KBY1 240919Z 19012G17KT 20/12 A2978 RMK A01 T01980122  RH  062%=      5-min Rain = 0
KBY1 240920Z 18009G14KT 20/12 A2978 RMK A01 T01970122  RH  062%=      5-min Rain = 0
KBY1 240921Z 17007G15KT 20/12 A2978 RMK A01 T01970122  RH  062%=      5-min Rain = 0
KBY1 240922Z 17013G19KT 20/12 A2978 RMK A01 T01970122  RH  062%=      5-min Rain = 0
KBY1 240923Z 19015KT 20/12 A2978 RMK A01 T01980123  RH  062%=      5-min Rain = 0
KBY1 240924Z 19012KT 20/12 A2978 RMK A01 T01980123  RH  062%=      5-min Rain = 0
KBY1 240925Z 19018G28KT 20/12 A2978 RMK A01 T01980123  RH  062%=      5-min Rain = 0
KBY1 240926Z 19014KT 20/12 A2978 RMK A01 T01990123  RH  062%=      5-min Rain = 0
KBY1 240927Z 18015KT 20/12 A2978 RMK A01 T01990123  RH  061%=      5-min Rain = 0
KBY1 240928Z 18016G23KT 20/12 A2978 RMK A01 T02000123  RH  061%=      5-min Rain = 0
KBY1 240929Z 19016KT 20/12 A2978 RMK A01 T01990123  RH  061%=      5-min Rain = 0
KBY1 240930Z 19013KT 20/12 A2978 RMK A01 T01990123  RH  061%=      5-min Rain = 0
KBY1 240931Z 19015G20KT 20/12 A2978 RMK A01 T01990123  RH  062%=      5-min Rain = 0
KBY1 240932Z 19015KT 20/12 A2978 RMK A01 T01990123  RH  062%=      5-min Rain = 0
KBY1 240933Z 19013KT 20/12 A2978 RMK A01 T01990123  RH  061%=      5-min Rain = 0
KBY1 240934Z 18012KT 20/12 A2978 RMK A01 T01990123  RH  062%=      5-min Rain = 0
KBY1 240935Z 18012KT 20/12 A2979 RMK A01 T01990124  RH  062%=      5-min Rain = 0
KBY1 240936Z 19012G25KT 20/12 A2979 RMK A01 T01990123  RH  062%=      5-min Rain = 0
KBY1 240937Z 18017G22KT 20/12 A2978 RMK A01 T01990123  RH  062%=      5-min Rain = 0
KBY1 240938Z 19016G21KT 20/12 A2979 RMK A01 T01990123  RH  061%=      5-min Rain = 0
KBY1 240939Z 18011G22KT 20/12 A2979 RMK A01 T02000123  RH  061%=      5-min Rain = 0
KBY1 240940Z 18010KT 20/12 A2979 RMK A01 T02000123  RH  061%=      5-min Rain = 0
KBY1 240941Z 17010KT 20/12 A2979 RMK A01 T01990123  RH  061%=      5-min Rain = 0
KBY1 240942Z 16009KT 20/12 A2979 RMK A01 T01980123  RH  062%=      5-min Rain = 0
KBY1 240943Z 16007KT 20/12 A2979 RMK A01 T01980123  RH  062%=      5-min Rain = 0
KBY1 240944Z 17011G16KT 20/12 A2979 RMK A01 T01980122  RH  062%=      5-min Rain = 0
KBY1 240945Z 16008G13KT 20/12 A298 RMK A01 T01980122  RH  062%=      5-min Rain = 0
KBY1 240946Z 16007KT 20/12 A298 RMK A01 T01980122  RH  061%=      5-min Rain = 0
KBY1 240947Z 15008KT 20/12 A298 RMK A01 T01980122  RH  061%=      5-min Rain = 0
KBY1 240948Z 15006KT 20/12 A298 RMK A01 T01980122  RH  061%=      5-min Rain = 0
KBY1 240949Z 13004KT 20/12 A298 RMK A01 T01980122  RH  061%=      5-min Rain = 0
KBY1 240950Z 14007KT 20/12 A298 RMK A01 T01970121  RH  061%=      5-min Rain = 0
KBY1 240951Z 14008G13KT 20/12 A298 RMK A01 T01970121  RH  062%=      5-min Rain = 0
KBY1 240952Z 12009KT 20/12 A2981 RMK A01 T01970122  RH  062%=      5-min Rain = 0
KBY1 240953Z 11008KT 20/12 A2981 RMK A01 T01960122  RH  062%=      5-min Rain = 0
KBY1 240954Z 10009KT 19/12 A2981 RMK A01 T01940122  RH  063%=      5-min Rain = 0
KBY1 240955Z 07009KT 19/12 A2981 RMK A01 T01930122  RH  064%=      5-min Rain = 0
KBY1 240956Z 08010KT 19/12 A2981 RMK A01 T01920123  RH  064%=      5-min Rain = 0
KBY1 240957Z 09010KT 19/12 A2981 RMK A01 T01920123  RH  064%=      5-min Rain = 0
KBY1 240958Z 09008KT 19/12 A2982 RMK A01 T01920122  RH  064%=      5-min Rain = 0
KBY1 240959Z 08006KT 19/12 A2982 RMK A01 T01910122  RH  064%=      5-min Rain = 0
KBY1 241000Z 08009KT 19/12 A2982 RMK A01 T01900122  RH  065%=      5-min Rain = 0
KBY1 241001Z 08009KT 19/12 A2982 RMK A01 T01890123  RH  065%=      5-min Rain = 0
KBY1 241002Z 08010KT 19/12 A2982 RMK A01 T01890123  RH  065%=      5-min Rain = 0
KBY1 241003Z 08009KT 19/12 A2982 RMK A01 T01890123  RH  065%=      5-min Rain = 0
KBY1 241004Z 08008KT 19/12 A2982 RMK A01 T01900123  RH  065%=      5-min Rain = 0
KBY1 241005Z 06007KT 19/12 A2982 RMK A01 T01900123  RH  065%=      5-min Rain = 0
KBY1 241006Z 06007KT 19/12 A2982 RMK A01 T01900123  RH  065%=      5-min Rain = 0
KBY1 241007Z 07006KT 19/12 A2982 RMK A01 T01900122  RH  065%=      5-min Rain = 0
KBY1 241008Z 05005KT 19/12 A2982 RMK A01 T01900122  RH  065%=      5-min Rain = 0
KBY1 241009Z 06009KT 19/12 A2982 RMK A01 T01880121  RH  065%=      5-min Rain = 0
KBY1 241010Z 06008KT 19/12 A2982 RMK A01 T01880121  RH  065%=      5-min Rain = 0
KBY1 241011Z 07008KT 19/12 A2982 RMK A01 T01880121  RH  065%=      5-min Rain = 0
KBY1 241012Z 07008KT 19/12 A2982 RMK A01 T01880121  RH  065%=      5-min Rain = 0
KBY1 241013Z 07011KT 19/12 A2982 RMK A01 T01870121  RH  065%=      5-min Rain = 0
KBY1 241014Z 07012KT 19/12 A2982 RMK A01 T01870121  RH  065%=      5-min Rain = 0
KBY1 241015Z 08007KT 19/12 A2982 RMK A01 T01890121  RH  065%=      5-min Rain = 0
KBY1 241016Z 07006KT 19/12 A2982 RMK A01 T01900121  RH  064%=      5-min Rain = 0
KBY1 241017Z 07009KT 19/12 A2982 RMK A01 T01900121  RH  064%=      5-min Rain = 0
KBY1 241018Z 07007KT 19/12 A2982 RMK A01 T01900121  RH  064%=      5-min Rain = 0
KBY1 241019Z 08010KT 19/12 A2982 RMK A01 T01900121  RH  064%=      5-min Rain = 0
KBY1 241020Z 08010KT 19/12 A2982 RMK A01 T01890121  RH  064%=      5-min Rain = 0
KBY1 241021Z 07008KT 19/12 A2982 RMK A01 T01900121  RH  064%=      5-min Rain = 0
KBY1 241022Z 08007KT 19/12 A2983 RMK A01 T01900120  RH  064%=      5-min Rain = 0
KBY1 241023Z 08006KT 19/12 A2983 RMK A01 T01890120  RH  064%=      5-min Rain = 0
KBY1 241024Z 08007KT 19/12 A2983 RMK A01 T01870120  RH  065%=      5-min Rain = 0
KBY1 241025Z 09007KT 19/12 A2982 RMK A01 T01870120  RH  065%=      5-min Rain = 0
KBY1 241026Z 10008KT 19/12 A2983 RMK A01 T01860120  RH  065%=      5-min Rain = 0
KBY1 241027Z 09007KT 19/12 A2983 RMK A01 T01860120  RH  065%=      5-min Rain = 0
KBY1 241028Z 10008KT 19/12 A2982 RMK A01 T01850120  RH  066%=      5-min Rain = 0
KBY1 241029Z 10007KT 19/12 A2982 RMK A01 T01850119  RH  066%=      5-min Rain = 0
KBY1 241030Z 12007KT 19/12 A2982 RMK A01 T01850119  RH  066%=      5-min Rain = 0
KBY1 241031Z 13007KT 18/12 A2982 RMK A01 T01840119  RH  066%=      5-min Rain = 0
KBY1 241032Z 14007KT 18/12 A2982 RMK A01 T01830119  RH  066%=      5-min Rain = 0
KBY1 241033Z 14006KT 18/12 A2982 RMK A01 T01830119  RH  066%=      5-min Rain = 0
KBY1 241034Z 15007KT 18/12 A2982 RMK A01 T01830119  RH  066%=      5-min Rain = 0
KBY1 241035Z 15007KT 18/12 A2982 RMK A01 T01830118  RH  066%=      5-min Rain = 0
KBY1 241036Z 15009KT 18/12 A2982 RMK A01 T01840119  RH  066%=      5-min Rain = 0
KBY1 241037Z 15009KT 19/12 A2982 RMK A01 T01860119  RH  065%=      5-min Rain = 0
KBY1 241038Z 15009KT 19/12 A2982 RMK A01 T01860119  RH  065%=      5-min Rain = 0
KBY1 241039Z 15009KT 19/12 A2982 RMK A01 T01860119  RH  065%=      5-min Rain = 0
KBY1 241040Z 15008KT 19/12 A2982 RMK A01 T01860118  RH  065%=      5-min Rain = 0
KBY1 241041Z 16007KT 19/12 A2981 RMK A01 T01850119  RH  065%=      5-min Rain = 0
KBY1 241042Z 18011KT 18/12 A2981 RMK A01 T01840118  RH  066%=      5-min Rain = 0
KBY1 241043Z 16008KT 18/12 A2981 RMK A01 T01840118  RH  065%=      5-min Rain = 0
KBY1 241044Z 16005KT 19/12 A2981 RMK A01 T01850119  RH  065%=      5-min Rain = 0
KBY1 241045Z 19006KT 18/12 A2982 RMK A01 T01840118  RH  065%=      5-min Rain = 0
KBY1 241046Z 18008KT 18/12 A2982 RMK A01 T01840118  RH  065%=      5-min Rain = 0
KBY1 241047Z 18006KT 18/12 A2982 RMK A01 T01840118  RH  065%=      5-min Rain = 0
KBY1 241048Z 20007KT 18/12 A2982 RMK A01 T01840118  RH  065%=      5-min Rain = 0
KBY1 241049Z 20009KT 19/12 A2982 RMK A01 T01850118  RH  065%=      5-min Rain = 0
KBY1 241050Z 18006KT 19/12 A2982 RMK A01 T01850117  RH  065%=      5-min Rain = 0
KBY1 241051Z 19007KT 18/12 A2982 RMK A01 T01840118  RH  065%=      5-min Rain = 0
KBY1 241052Z 18008KT 18/12 A2982 RMK A01 T01830117  RH  066%=      5-min Rain = 0
KBY1 241053Z 18007KT 18/12 A2982 RMK A01 T01820117  RH  066%=      5-min Rain = 0
KBY1 241054Z 18007KT 18/12 A2982 RMK A01 T01810117  RH  066%=      5-min Rain = 0
KBY1 241055Z 18009KT 18/12 A2982 RMK A01 T01800117  RH  067%=      5-min Rain = 0
KBY1 241056Z 18010KT 18/12 A2982 RMK A01 T01800117  RH  067%=      5-min Rain = 0
KBY1 241057Z 18008KT 18/12 A2982 RMK A01 T01800117  RH  067%=      5-min Rain = 0
KBY1 241058Z 17009KT 18/12 A2982 RMK A01 T01800117  RH  067%=      5-min Rain = 0
KBY1 241059Z 18012KT 18/12 A2981 RMK A01 T01800116  RH  066%=      5-min Rain = 0
KBY1 241100Z 17009KT 18/12 A2981 RMK A01 T01810116  RH  066%=      5-min Rain = 0
KBY1 241101Z 17011KT 18/12 A2981 RMK A01 T01820116  RH  065%=      5-min Rain = 0
KBY1 241102Z 18008KT 18/12 A2982 RMK A01 T01820115  RH  065%=      5-min Rain = 0
KBY1 241103Z 18007KT 18/12 A2982 RMK A01 T01820116  RH  065%=      5-min Rain = 0
KBY1 241104Z 17008KT 18/12 A2982 RMK A01 T01820116  RH  065%=      5-min Rain = 0
KBY1 241105Z 17007KT 18/12 A2982 RMK A01 T01810115  RH  065%=      5-min Rain = 0
KBY1 241106Z 16008KT 18/12 A2982 RMK A01 T01820115  RH  065%=      5-min Rain = 0
KBY1 241107Z 18011KT 18/11 A2982 RMK A01 T01820114  RH  065%=      5-min Rain = 0
KBY1 241108Z 17008KT 18/12 A2982 RMK A01 T01840115  RH  064%=      5-min Rain = 0
KBY1 241109Z 17005KT 18/12 A2982 RMK A01 T01840115  RH  064%=      5-min Rain = 0
KBY1 241110Z 17007KT 18/11 A2983 RMK A01 T01840114  RH  064%=      5-min Rain = 0
KBY1 241111Z 17007KT 18/11 A2983 RMK A01 T01840114  RH  064%=      5-min Rain = 0
KBY1 241112Z 16006KT 18/11 A2983 RMK A01 T01840114  RH  064%=      5-min Rain = 0
KBY1 241113Z 15007KT 18/11 A2983 RMK A01 T01840114  RH  064%=      5-min Rain = 0
KBY1 241114Z 15008KT 18/11 A2983 RMK A01 T01830114  RH  064%=      5-min Rain = 0
KBY1 241115Z 16010KT 18/11 A2983 RMK A01 T01830114  RH  064%=      5-min Rain = 0
KBY1 241116Z 16008KT 18/11 A2983 RMK A01 T01830113  RH  064%=      5-min Rain = 0
KBY1 241117Z 16010KT 18/11 A2983 RMK A01 T01830114  RH  064%=      5-min Rain = 0
KBY1 241118Z 14007KT 18/11 A2983 RMK A01 T01830113  RH  064%=      5-min Rain = 0
KBY1 241119Z 14009KT 18/11 A2983 RMK A01 T01830113  RH  064%=      5-min Rain = 0
KBY1 241120Z 13007KT 18/11 A2983 RMK A01 T01830113  RH  064%=      5-min Rain = 0
KBY1 241121Z 15007KT 18/11 A2983 RMK A01 T01820113  RH  064%=      5-min Rain = 0
KBY1 241122Z 14012KT 18/11 A2982 RMK A01 T01820113  RH  064%=      5-min Rain = 0
KBY1 241123Z 14010KT 18/11 A2983 RMK A01 T01830112  RH  063%=      5-min Rain = 0
KBY1 241124Z 14008KT 18/11 A2982 RMK A01 T01840112  RH  063%=      5-min Rain = 0
KBY1 241125Z 13006KT 18/11 A2983 RMK A01 T01840112  RH  063%=      5-min Rain = 0
KBY1 241126Z 12004KT 18/11 A2983 RMK A01 T01830113  RH  063%=      5-min Rain = 0
KBY1 241127Z 14004KT 18/11 A2983 RMK A01 T01820112  RH  064%=      5-min Rain = 0
KBY1 241128Z 13003KT 18/11 A2983 RMK A01 T01810113  RH  064%=      5-min Rain = 0
KBY1 241129Z 09003KT 18/11 A2983 RMK A01 T01800113  RH  065%=      5-min Rain = 0
KBY1 241130Z 07004KT 18/11 A2982 RMK A01 T01790113  RH  065%=      5-min Rain = 0
KBY1 241131Z 09003KT 18/11 A2982 RMK A01 T01770112  RH  066%=      5-min Rain = 0
KBY1 241132Z 07003KT 18/11 A2983 RMK A01 T01750112  RH  067%=      5-min Rain = 0
KBY1 241133Z 05003KT 17/11 A2983 RMK A01 T01730113  RH  068%=      5-min Rain = 0
KBY1 241134Z 12002KT 17/11 A2983 RMK A01 T01720113  RH  068%=      5-min Rain = 0
KBY1 241135Z 12002KT 17/11 A2982 RMK A01 T01720113  RH  068%=      5-min Rain = 0
KBY1 241136Z 06003KT 17/11 A2982 RMK A01 T01720113  RH  068%=      5-min Rain = 0
KBY1 241137Z 07003KT 17/11 A2982 RMK A01 T01720113  RH  068%=      5-min Rain = 0
KBY1 241138Z 09003KT 17/11 A2982 RMK A01 T01720113  RH  068%=      5-min Rain = 0
KBY1 241139Z 09003KT 17/11 A2982 RMK A01 T01710112  RH  068%=      5-min Rain = 0
KBY1 241140Z 12005KT 17/11 A2982 RMK A01 T01690112  RH  069%=      5-min Rain = 0
KBY1 241141Z 12005KT 17/11 A2982 RMK A01 T01680111  RH  069%=      5-min Rain = 0
KBY1 241142Z 11005KT 17/11 A2982 RMK A01 T01690112  RH  069%=      5-min Rain = 0
KBY1 241143Z 12004KT 17/11 A2982 RMK A01 T01690112  RH  069%=      5-min Rain = 0
KBY1 241144Z 15004KT 17/11 A2982 RMK A01 T01690112  RH  069%=      5-min Rain = 0
KBY1 241145Z 15006KT 17/11 A2982 RMK A01 T01680112  RH  069%=      5-min Rain = 0
KBY1 241146Z 14006KT 17/11 A2982 RMK A01 T01670111  RH  069%=      5-min Rain = 0
KBY1 241147Z 14006KT 17/11 A2982 RMK A01 T01680111  RH  069%=      5-min Rain = 0
KBY1 241148Z 16006KT 17/11 A2982 RMK A01 T01690111  RH  068%=      5-min Rain = 0
KBY1 241149Z 16006KT 17/11 A2982 RMK A01 T01700111  RH  068%=      5-min Rain = 0
KBY1 241150Z 16007KT 17/11 A2982 RMK A01 T01710111  RH  068%=      5-min Rain = 0
KBY1 241151Z 15008KT 17/11 A2981 RMK A01 T01720111  RH  067%=      5-min Rain = 0
KBY1 241152Z 15006KT 17/11 A2981 RMK A01 T01730111  RH  067%=      5-min Rain = 0
KBY1 241153Z 15006KT 17/11 A2981 RMK A01 T01740111  RH  066%=      5-min Rain = 0
KBY1 241154Z 15005KT 17/11 A2982 RMK A01 T01740111  RH  066%=      5-min Rain = 0
KBY1 241155Z 15003KT 17/11 A2981 RMK A01 T01740111  RH  066%=      5-min Rain = 0
KBY1 241156Z 15006KT 17/11 A2982 RMK A01 T01740111  RH  066%=      5-min Rain = 0
KBY1 241157Z 13004KT 17/11 A2982 RMK A01 T01740110  RH  066%=      5-min Rain = 0
KBY1 241158Z 12003KT 17/11 A2982 RMK A01 T01740110  RH  066%=      5-min Rain = 0
KBY1 241159Z 12004KT 18/11 A2982 RMK A01 T01750110  RH  066%=      5-min Rain = 0
KBY1 241200Z 08002KT 17/11 A2982 RMK A01 T01740110  RH  066%=      5-min Rain = 0
KBY1 241201Z 10002KT 17/11 A2982 RMK A01 T01740110  RH  066%=      5-min Rain = 0
KBY1 241202Z 10004KT 17/11 A2982 RMK A01 T01740110  RH  066%=      5-min Rain = 0
KBY1 241203Z 11002KT 17/11 A2982 RMK A01 T01740110  RH  066%=      5-min Rain = 0
KBY1 241204Z 11003KT 17/11 A2982 RMK A01 T01740110  RH  066%=      5-min Rain = 0
KBY1 241205Z 10004KT 17/11 A2982 RMK A01 T01740110  RH  066%=      5-min Rain = 0
KBY1 241206Z 08004KT 17/11 A2982 RMK A01 T01730110  RH  066%=      5-min Rain = 0
KBY1 241207Z 12004KT 17/11 A2982 RMK A01 T01730110  RH  067%=      5-min Rain = 0
KBY1 241208Z 13004KT 17/11 A2982 RMK A01 T01720110  RH  067%=      5-min Rain = 0
KBY1 241209Z 09002KT 17/11 A2982 RMK A01 T01730110  RH  067%=      5-min Rain = 0
KBY1 241210Z 04003KT 17/11 A2982 RMK A01 T01740110  RH  066%=      5-min Rain = 0
KBY1 241211Z 05003KT 18/11 A2982 RMK A01 T01750110  RH  066%=      5-min Rain = 0
KBY1 241212Z 05004KT 18/11 A2982 RMK A01 T01750110  RH  065%=      5-min Rain = 0
KBY1 241213Z 06004KT 18/11 A2982 RMK A01 T01750110  RH  065%=      5-min Rain = 0
KBY1 241214Z 07006KT 18/11 A2982 RMK A01 T01750110  RH  065%=      5-min Rain = 0
KBY1 241215Z 07007KT 18/11 A2982 RMK A01 T01760111  RH  065%=      5-min Rain = 0
KBY1 241216Z 08007KT 18/11 A2982 RMK A01 T01770111  RH  065%=      5-min Rain = 0
KBY1 241217Z 03005KT 18/11 A2982 RMK A01 T01780111  RH  065%=      5-min Rain = 0
KBY1 241218Z 04003KT 18/11 A2983 RMK A01 T01800111  RH  064%=      5-min Rain = 0
KBY1 241219Z 06004KT 18/11 A2983 RMK A01 T01810111  RH  064%=      5-min Rain = 0
KBY1 241220Z 07005KT 18/11 A2983 RMK A01 T01810111  RH  064%=      5-min Rain = 0
KBY1 241221Z 06005KT 18/11 A2983 RMK A01 T01820111  RH  063%=      5-min Rain = 0
KBY1 241222Z 08004KT 18/11 A2983 RMK A01 T01830112  RH  063%=      5-min Rain = 0
KBY1 241223Z 11002KT 18/11 A2983 RMK A01 T01840111  RH  063%=      5-min Rain = 0
KBY1 241224Z 10004KT 19/11 A2983 RMK A01 T01850112  RH  062%=      5-min Rain = 0
KBY1 241225Z 12006KT 19/11 A2983 RMK A01 T01860112  RH  062%=      5-min Rain = 0
KBY1 241226Z 12004KT 19/11 A2983 RMK A01 T01860112  RH  062%=      5-min Rain = 0
KBY1 241227Z 16004KT 19/11 A2983 RMK A01 T01860112  RH  062%=      5-min Rain = 0
KBY1 241228Z 17002KT 19/11 A2983 RMK A01 T01870112  RH  062%=      5-min Rain = 0
KBY1 241229Z 14003KT 19/11 A2983 RMK A01 T01870112  RH  062%=      5-min Rain = 0
KBY1 241230Z 15004KT 19/11 A2983 RMK A01 T01880113  RH  062%=      5-min Rain = 0
KBY1 241231Z 15004KT 19/11 A2982 RMK A01 T01880114  RH  062%=      5-min Rain = 0
KBY1 241232Z 18004KT 19/12 A2982 RMK A01 T01870115  RH  063%=      5-min Rain = 0
KBY1 241233Z 19005KT 19/12 A2982 RMK A01 T01870115  RH  063%=      5-min Rain = 0
KBY1 241234Z 17008KT 19/11 A2982 RMK A01 T01860114  RH  063%=      5-min Rain = 0
KBY1 241235Z 18009KT 19/11 A2982 RMK A01 T01860114  RH  063%=      5-min Rain = 0
KBY1 241236Z 18008KT 19/11 A2982 RMK A01 T01860114  RH  063%=      5-min Rain = 0
KBY1 241237Z 18012KT 19/12 A2982 RMK A01 T01860115  RH  063%=      5-min Rain = 0
KBY1 241238Z 19014KT 19/12 A2981 RMK A01 T01860115  RH  063%=      5-min Rain = 0
KBY1 241239Z 18012KT 19/11 A2981 RMK A01 T01860114  RH  063%=      5-min Rain = 0
KBY1 241240Z 18011KT 19/11 A2981 RMK A01 T01870114  RH  063%=      5-min Rain = 0
KBY1 241241Z 19013KT 19/12 A2981 RMK A01 T01870115  RH  063%=      5-min Rain = 0
KBY1 241242Z 18011KT 19/12 A2981 RMK A01 T01870115  RH  063%=      5-min Rain = 0
KBY1 241243Z 18013KT 19/12 A2981 RMK A01 T01870115  RH  063%=      5-min Rain = 0
KBY1 241244Z 19014KT 19/12 A2981 RMK A01 T01870115  RH  063%=      5-min Rain = 0
KBY1 241245Z 19014KT 19/12 A2981 RMK A01 T01870115  RH  063%=      5-min Rain = 0
KBY1 241246Z 20012KT 19/12 A2981 RMK A01 T01880115  RH  063%=      5-min Rain = 0
KBY1 241247Z 19012KT 19/12 A2981 RMK A01 T01880116  RH  063%=      5-min Rain = 0
KBY1 241248Z 20010KT 19/12 A2981 RMK A01 T01880116  RH  063%=      5-min Rain = 0
KBY1 241249Z 21012G20KT 19/12 A2981 RMK A01 T01890116  RH  063%=      5-min Rain = 0
KBY1 241250Z 20016G22KT 19/12 A2981 RMK A01 T01890115  RH  062%=      5-min Rain = 0
KBY1 241251Z 20012KT 19/12 A2981 RMK A01 T01890115  RH  062%=      5-min Rain = 0
KBY1 241252Z 20013KT 19/12 A2981 RMK A01 T01890116  RH  063%=      5-min Rain = 0
KBY1 241253Z 20011KT 19/12 A2981 RMK A01 T01890116  RH  063%=      5-min Rain = 0
KBY1 241254Z 20011KT 19/12 A2981 RMK A01 T01900117  RH  063%=      5-min Rain = 0
KBY1 241255Z 19009KT 19/12 A2981 RMK A01 T01900117  RH  062%=      5-min Rain = 0
KBY1 241256Z 20009KT 19/12 A2981 RMK A01 T01900117  RH  062%=      5-min Rain = 0
KBY1 241257Z 20011KT 19/12 A2981 RMK A01 T01910117  RH  062%=      5-min Rain = 0
KBY1 241258Z 20015KT 19/12 A2981 RMK A01 T01910117  RH  062%=      5-min Rain = 0
KBY1 241259Z 21014G19KT 19/12 A2981 RMK A01 T01910117  RH  062%=      5-min Rain = 0
KBY1 241300Z 19014KT 19/12 A2981 RMK A01 T01910117  RH  062%=      5-min Rain = 0
KBY1 241301Z 21011KT 19/12 A2981 RMK A01 T01910117  RH  062%=      5-min Rain = 0
KBY1 241302Z 21011KT 19/12 A2981 RMK A01 T01910117  RH  062%=      5-min Rain = 0
KBY1 241303Z 22013KT 19/12 A2981 RMK A01 T01910117  RH  062%=      5-min Rain = 0
KBY1 241304Z 22012G17KT 19/12 A2981 RMK A01 T01910117  RH  062%=      5-min Rain = 0
KBY1 241305Z 20011G16KT 19/12 A2981 RMK A01 T01920118  RH  062%=      5-min Rain = 0
KBY1 241306Z 20008G13KT 19/12 A2982 RMK A01 T01920118  RH  062%=      5-min Rain = 0
KBY1 241307Z 21011KT 19/12 A2982 RMK A01 T01930118  RH  062%=      5-min Rain = 0
KBY1 241308Z 22011KT 19/12 A2982 RMK A01 T01940119  RH  062%=      5-min Rain = 0
KBY1 241309Z 23010KT 19/12 A2982 RMK A01 T01940120  RH  062%=      5-min Rain = 0
KBY1 241310Z 22012KT 20/12 A2982 RMK A01 T01950119  RH  062%=      5-min Rain = 0
KBY1 241311Z 23012KT 20/12 A2982 RMK A01 T01950119  RH  062%=      5-min Rain = 0
KBY1 241312Z 23012KT 20/12 A2982 RMK A01 T01950119  RH  062%=      5-min Rain = 0
KBY1 241313Z 22010KT 20/12 A2982 RMK A01 T01950119  RH  062%=      5-min Rain = 0
KBY1 241314Z 23007KT 20/12 A2982 RMK A01 T01950120  RH  062%=      5-min Rain = 0
KBY1 241315Z 24008KT 20/12 A2982 RMK A01 T01950120  RH  062%=      5-min Rain = 0
KBY1 241316Z 23008KT 20/12 A2982 RMK A01 T01970121  RH  062%=      5-min Rain = 0
KBY1 241317Z 23008KT 20/12 A2982 RMK A01 T01970120  RH  061%=      5-min Rain = 0
KBY1 241318Z 24010G16KT 20/12 A2982 RMK A01 T01980121  RH  061%=      5-min Rain = 0
KBY1 241319Z 24012KT 20/12 A2982 RMK A01 T01970121  RH  061%=      5-min Rain = 0
KBY1 241320Z 23010KT 20/12 A2982 RMK A01 T01970121  RH  061%=      5-min Rain = 0
KBY1 241321Z 23007KT 20/12 A2982 RMK A01 T01980122  RH  061%=      5-min Rain = 0
KBY1 241322Z 23007KT 20/12 A2982 RMK A01 T01990122  RH  061%=      5-min Rain = 0
KBY1 241323Z 24006KT 20/12 A2982 RMK A01 T01990122  RH  061%=      5-min Rain = 0
KBY1 241324Z 24009KT 20/12 A2983 RMK A01 T02000123  RH  061%=      5-min Rain = 0
KBY1 241325Z 24007KT 20/12 A2983 RMK A01 T02020124  RH  061%=      5-min Rain = 0
KBY1 241326Z 25008KT 20/12 A2983 RMK A01 T02030124  RH  060%=      5-min Rain = 0
KBY1 241327Z 24013KT 20/12 A2983 RMK A01 T02030123  RH  060%=      5-min Rain = 0
KBY1 241328Z 23013KT 20/12 A2983 RMK A01 T02020123  RH  060%=      5-min Rain = 0
KBY1 241329Z 22013KT 20/12 A2983 RMK A01 T02010124  RH  061%=      5-min Rain = 0
KBY1 241330Z 22015KT 20/12 A2983 RMK A01 T02010124  RH  061%=      5-min Rain = 0
KBY1 241331Z 23011G16KT 20/12 A2983 RMK A01 T02010124  RH  061%=      5-min Rain = 0
KBY1 241332Z 23009KT 20/12 A2983 RMK A01 T02010124  RH  061%=      5-min Rain = 0
KBY1 241333Z 22008KT 20/13 A2982 RMK A01 T02020125  RH  061%=      5-min Rain = 0
KBY1 241334Z 23011KT 20/13 A2982 RMK A01 T02030125  RH  061%=      5-min Rain = 0
KBY1 241335Z 21014KT 20/13 A2982 RMK A01 T02040125  RH  060%=      5-min Rain = 0
KBY1 241336Z 22011KT 20/13 A2982 RMK A01 T02040125  RH  061%=      5-min Rain = 0
KBY1 241337Z 23010KT 21/13 A2982 RMK A01 T02050125  RH  060%=      5-min Rain = 0
KBY1 241338Z 22011KT 21/13 A2982 RMK A01 T02050125  RH  060%=      5-min Rain = 0
KBY1 241339Z 22010KT 21/13 A2982 RMK A01 T02050127  RH  061%=      5-min Rain = 0
KBY1 241340Z 22016KT 21/13 A2982 RMK A01 T02060125  RH  060%=      5-min Rain = 0
KBY1 241341Z 22012KT 21/13 A2982 RMK A01 T02060125  RH  060%=      5-min Rain = 0
KBY1 241342Z 22011KT 21/13 A2982 RMK A01 T02050126  RH  060%=      5-min Rain = 0
KBY1 241343Z 23015KT 21/13 A2982 RMK A01 T02060125  RH  060%=      5-min Rain = 0
KBY1 241344Z 22015KT 21/13 A2982 RMK A01 T02060125  RH  060%=      5-min Rain = 0
KBY1 241345Z 22013KT 21/13 A2982 RMK A01 T02060125  RH  060%=      5-min Rain = 0
KBY1 241346Z 22010KT 21/13 A2982 RMK A01 T02060126  RH  060%=      5-min Rain = 0
KBY1 241347Z 24012G18KT 21/13 A2982 RMK A01 T02070126  RH  060%=      5-min Rain = 0
KBY1 241348Z 22012KT 21/13 A2982 RMK A01 T02080125  RH  059%=      5-min Rain = 0
KBY1 241349Z 24014KT 21/13 A2982 RMK A01 T02090125  RH  059%=      5-min Rain = 0
KBY1 241350Z 24013KT 21/12 A2982 RMK A01 T02090124  RH  058%=      5-min Rain = 0
KBY1 241351Z 24009G15KT 21/13 A2982 RMK A01 T02100126  RH  059%=      5-min Rain = 0
KBY1 241352Z 24015KT 21/13 A2982 RMK A01 T02100125  RH  058%=      5-min Rain = 0
KBY1 241353Z 25013KT 21/12 A2982 RMK A01 T02110124  RH  058%=      5-min Rain = 0
KBY1 241354Z 24012KT 21/13 A2982 RMK A01 T02110126  RH  058%=      5-min Rain = 0
KBY1 241355Z 25012G17KT 21/13 A2982 RMK A01 T02130127  RH  058%=      5-min Rain = 0
KBY1 241356Z 24014KT 21/13 A2982 RMK A01 T02130125  RH  057%=      5-min Rain = 0
KBY1 241357Z 22014KT 21/13 A2982 RMK A01 T02140125  RH  057%=      5-min Rain = 0
KBY1 241358Z 23014KT 21/13 A2982 RMK A01 T02130126  RH  057%=      5-min Rain = 0
KBY1 241359Z 24014KT 21/13 A2982 RMK A01 T02130125  RH  057%=      5-min Rain = 0
KBY1 241400Z 24011KT 21/12 A2982 RMK A01 T02130124  RH  057%=      5-min Rain = 0
KBY1 241401Z 23011KT 21/13 A2982 RMK A01 T02130125  RH  057%=      5-min Rain = 0
KBY1 241402Z 25011KT 21/13 A2982 RMK A01 T02130126  RH  057%=      5-min Rain = 0
KBY1 241403Z 25014KT 22/13 A2982 RMK A01 T02150125  RH  057%=      5-min Rain = 0
KBY1 241404Z 24011KT 22/13 A2982 RMK A01 T02160126  RH  057%=      5-min Rain = 0
KBY1 241405Z 23012KT 22/13 A2982 RMK A01 T02170126  RH  056%=      5-min Rain = 0
KBY1 241406Z 24011KT 22/13 A2982 RMK A01 T02170126  RH  056%=      5-min Rain = 0
KBY1 241407Z 24011G16KT 22/13 A2982 RMK A01 T02170126  RH  056%=      5-min Rain = 0
KBY1 241408Z 25009KT 22/13 A2982 RMK A01 T02180127  RH  056%=      5-min Rain = 0
KBY1 241409Z 26010KT 22/13 A2982 RMK A01 T02200127  RH  056%=      5-min Rain = 0
KBY1 241410Z 25009KT 22/13 A2982 RMK A01 T02200127  RH  055%=      5-min Rain = 0
KBY1 241411Z 25009KT 22/13 A2982 RMK A01 T02210128  RH  055%=      5-min Rain = 0
KBY1 241412Z 25011G16KT 22/13 A2982 RMK A01 T02220128  RH  055%=      5-min Rain = 0
KBY1 241413Z 25014KT 22/13 A2982 RMK A01 T02230125  RH  054%=      5-min Rain = 0
KBY1 241414Z 25014KT 22/12 A2982 RMK A01 T02210124  RH  054%=      5-min Rain = 0
KBY1 241415Z 26012KT 22/12 A2982 RMK A01 T02210124  RH  054%=      5-min Rain = 0
KBY1 241416Z 25012KT 22/12 A2982 RMK A01 T02210123  RH  054%=      5-min Rain = 0
KBY1 241417Z 25013KT 22/12 A2982 RMK A01 T02200122  RH  054%=      5-min Rain = 0
KBY1 241418Z 25012KT 22/12 A2982 RMK A01 T02200124  RH  054%=      5-min Rain = 0
KBY1 241419Z 26009KT 22/12 A2982 RMK A01 T02200124  RH  054%=      5-min Rain = 0
KBY1 241420Z 26013KT 22/12 A2982 RMK A01 T02230123  RH  053%=      5-min Rain = 0
KBY1 241421Z 25011KT 22/12 A2982 RMK A01 T02230122  RH  053%=      5-min Rain = 0
KBY1 241422Z 25011KT 22/12 A2982 RMK A01 T02240123  RH  053%=      5-min Rain = 0
KBY1 241423Z 24013KT 22/12 A2982 RMK A01 T02240120  RH  052%=      5-min Rain = 0
KBY1 241424Z 25012KT 22/12 A2982 RMK A01 T02220122  RH  053%=      5-min Rain = 0
KBY1 241425Z 26013KT 22/12 A2982 RMK A01 T02210123  RH  054%=      5-min Rain = 0
KBY1 241426Z 26014KT 22/12 A2982 RMK A01 T02230122  RH  053%=      5-min Rain = 0
KBY1 241427Z 26012KT 22/12 A2982 RMK A01 T02230119  RH  052%=      5-min Rain = 0
KBY1 241428Z 26014KT 22/12 A2982 RMK A01 T02230118  RH  052%=      5-min Rain = 0
KBY1 241429Z 26014KT 22/11 A2982 RMK A01 T02220114  RH  050%=      5-min Rain = 0
KBY1 241430Z 26012G19KT 22/11 A2982 RMK A01 T02230114  RH  050%=      5-min Rain = 0
KBY1 241431Z 25014KT 22/11 A2982 RMK A01 T02230112  RH  049%=      5-min Rain = 0
KBY1 241432Z 25016KT 22/11 A2982 RMK A01 T02230113  RH  050%=      5-min Rain = 0
KBY1 241433Z 25013KT 22/12 A2982 RMK A01 T02220115  RH  050%=      5-min Rain = 0
KBY1 241434Z 25012KT 22/12 A2982 RMK A01 T02230115  RH  050%=      5-min Rain = 0
KBY1 241435Z 25014G19KT 22/11 A2982 RMK A01 T02240114  RH  050%=      5-min Rain = 0
KBY1 241436Z 26014G19KT 23/11 A2982 RMK A01 T02260109  RH  048%=      5-min Rain = 0
KBY1 241437Z 26015G21KT 23/11 A2982 RMK A01 T02280107  RH  046%=      5-min Rain = 0
KBY1 241438Z 26016KT 23/10 A2982 RMK A01 T02290100  RH  044%=      5-min Rain = 0
KBY1 241439Z 26016KT 23/10 A2982 RMK A01 T02280099  RH  044%=      5-min Rain = 0
KBY1 241440Z 25016G22KT 23/10 A2982 RMK A01 T02280099  RH  044%=      5-min Rain = 0
KBY1 241441Z 25016KT 23/10 A2982 RMK A01 T02280098  RH  044%=      5-min Rain = 0
KBY1 241442Z 24015G20KT 23/10 A2982 RMK A01 T02270099  RH  044%=      5-min Rain = 0
KBY1 241443Z 24012G18KT 23/10 A2982 RMK A01 T02280101  RH  044%=      5-min Rain = 0
KBY1 241444Z 24018KT 23/10 A2982 RMK A01 T02300099  RH  043%=      5-min Rain = 0
KBY1 241445Z 25014KT 23/10 A2982 RMK A01 T02300098  RH  043%=      5-min Rain = 0
KBY1 241446Z 26012G17KT 23/10 A2982 RMK A01 T02300095  RH  042%=      5-min Rain = 0
KBY1 241447Z 27014G20KT 23/09 A2982 RMK A01 T02320092  RH  041%=      5-min Rain = 0
KBY1 241448Z 27018KT 23/09 A2982 RMK A01 T02330088  RH  040%=      5-min Rain = 0
KBY1 241449Z 27014KT 23/09 A2982 RMK A01 T02290085  RH  040%=      5-min Rain = 0
KBY1 241450Z 27015KT 23/09 A2982 RMK A01 T02270085  RH  040%=      5-min Rain = 0
KBY1 241451Z 26015KT 23/08 A2982 RMK A01 T02260084  RH  040%=      5-min Rain = 0
KBY1 241452Z 27015KT 23/08 A2982 RMK A01 T02250082  RH  040%=      5-min Rain = 0
KBY1 241453Z 27014KT 23/08 A2982 RMK A01 T02260080  RH  039%=      5-min Rain = 0
KBY1 241454Z 27014KT 23/08 A2982 RMK A01 T02250078  RH  039%=      5-min Rain = 0
KBY1 241455Z 26014KT 23/08 A2982 RMK A01 T02260080  RH  039%=      5-min Rain = 0
KBY1 241456Z 26015KT 23/08 A2982 RMK A01 T02260079  RH  039%=      5-min Rain = 0
KBY1 241457Z 26013KT 23/07 A2982 RMK A01 T02260074  RH  037%=      5-min Rain = 0
KBY1 241458Z 26010KT 23/07 A2982 RMK A01 T02280074  RH  037%=      5-min Rain = 0
KBY1 241459Z 27009KT 23/07 A2982 RMK A01 T02310074  RH  036%=      5-min Rain = 0
KBY1 241500Z 26013KT 23/07 A2982 RMK A01 T02340068  RH  034%=      5-min Rain = 0
KBY1 241501Z 26012KT 24/06 A2982 RMK A01 T02350064  RH  033%=      5-min Rain = 0
KBY1 241502Z 26013KT 23/06 A2982 RMK A01 T02340059  RH  032%=      5-min Rain = 0
KBY1 241503Z 26013KT 23/06 A2982 RMK A01 T02310059  RH  033%=      5-min Rain = 0
KBY1 241504Z 27010KT 23/06 A2982 RMK A01 T02310059  RH  033%=      5-min Rain = 0
KBY1 241505Z 28010G15KT 23/06 A2982 RMK A01 T02330061  RH  033%=      5-min Rain = 0
KBY1 241506Z 27009KT 23/06 A2982 RMK A01 T02340064  RH  033%=      5-min Rain = 0
KBY1 241507Z 28010G16KT 24/06 A2982 RMK A01 T02360064  RH  033%=      5-min Rain = 0
KBY1 241508Z 27011G17KT 24/07 A2982 RMK A01 T02350065  RH  033%=      5-min Rain = 0
KBY1 241509Z 29010G15KT 23/07 A2982 RMK A01 T02320069  RH  035%=      5-min Rain = 0
KBY1 241510Z 29012KT 23/07 A2982 RMK A01 T02310070  RH  035%=      5-min Rain = 0
KBY1 241511Z 29009KT 23/07 A2982 RMK A01 T02310071  RH  036%=      5-min Rain = 0
KBY1 241512Z 28011KT 23/07 A2982 RMK A01 T02310072  RH  036%=      5-min Rain = 0
KBY1 241513Z 28010KT 23/07 A2982 RMK A01 T02310073  RH  036%=      5-min Rain = 0
KBY1 241514Z 32007KT 23/08 A2982 RMK A01 T02320075  RH  037%=      5-min Rain = 0
KBY1 241515Z 30012G17KT 23/08 A2982 RMK A01 T02320075  RH  036%=      5-min Rain = 0
KBY1 241516Z 28010KT 23/08 A2982 RMK A01 T02320076  RH  037%=      5-min Rain = 0
KBY1 241517Z 27009KT 23/08 A2982 RMK A01 T02310076  RH  037%=      5-min Rain = 0
KBY1 241518Z 26010KT 23/08 A2982 RMK A01 T02300078  RH  038%=      5-min Rain = 0
KBY1 241519Z 29009KT 23/08 A2982 RMK A01 T02300080  RH  038%=      5-min Rain = 0
KBY1 241520Z 31008KT 23/08 A2982 RMK A01 T02320081  RH  038%=      5-min Rain = 0
KBY1 241521Z 27006KT 23/08 A2982 RMK A01 T02340083  RH  038%=      5-min Rain = 0
KBY1 241522Z 27008G13KT 24/09 A2982 RMK A01 T02360087  RH  039%=      5-min Rain = 0
KBY1 241523Z 27009G14KT 24/09 A2982 RMK A01 T02360087  RH  039%=      5-min Rain = 0
KBY1 241524Z 28005KT 24/09 A2982 RMK A01 T02350092  RH  040%=      5-min Rain = 0
KBY1 241525Z 30006KT 24/10 A2982 RMK A01 T02360096  RH  041%=      5-min Rain = 0
KBY1 241526Z 27008G15KT 23/10 A2982 RMK A01 T02340098  RH  042%=      5-min Rain = 0
KBY1 241527Z 29008G13KT 23/11 A2982 RMK A01 T02340107  RH  045%=      5-min Rain = 0
KBY1 241528Z 29009KT 24/11 A2982 RMK A01 T02370110  RH  045%=      5-min Rain = 0
KBY1 241529Z 29007KT 24/11 A2982 RMK A01 T02370107  RH  044%=      5-min Rain = 0
KBY1 241530Z 28009KT 24/11 A2982 RMK A01 T02360110  RH  045%=      5-min Rain = 0
KBY1 241531Z 29007G12KT 23/11 A2982 RMK A01 T02340111  RH  046%=      5-min Rain = 0
KBY1 241532Z 31007G12KT 23/11 A2982 RMK A01 T02330114  RH  047%=      5-min Rain = 0
KBY1 241533Z 31009KT 23/12 A2982 RMK A01 T02340115  RH  047%=      5-min Rain = 0
KBY1 241534Z 33009G14KT 24/11 A2982 RMK A01 T02350114  RH  046%=      5-min Rain = 0
KBY1 241535Z 33008KT 24/11 A2982 RMK A01 T02360112  RH  046%=      5-min Rain = 0
KBY1 241536Z 31007KT 24/11 A2982 RMK A01 T02360113  RH  046%=      5-min Rain = 0
KBY1 241537Z 31008G13KT 24/12 A2982 RMK A01 T02370115  RH  046%=      5-min Rain = 0
KBY1 241538Z 33010KT 24/12 A2982 RMK A01 T02370117  RH  047%=      5-min Rain = 0
KBY1 241539Z 32008KT 24/12 A2982 RMK A01 T02350119  RH  048%=      5-min Rain = 0
KBY1 241540Z 32006KT 23/12 A2982 RMK A01 T02320119  RH  049%=      5-min Rain = 0
KBY1 241541Z 33007G12KT 23/12 A2982 RMK A01 T02320120  RH  049%=      5-min Rain = 0
KBY1 241542Z 32011KT 24/12 A2982 RMK A01 T02360123  RH  049%=      5-min Rain = 0
KBY1 241543Z 31012KT 24/12 A2982 RMK A01 T02380123  RH  048%=      5-min Rain = 0
KBY1 241544Z 31011KT 24/12 A2982 RMK A01 T02390121  RH  048%=      5-min Rain = 0
KBY1 241545Z 30012KT 24/12 A2982 RMK A01 T02400121  RH  047%=      5-min Rain = 0
KBY1 241546Z 31008KT 24/12 A2982 RMK A01 T02390121  RH  048%=      5-min Rain = 0
KBY1 241547Z 30007G12KT 24/12 A2982 RMK A01 T02400123  RH  048%=      5-min Rain = 0
KBY1 241548Z 35008KT 24/12 A2982 RMK A01 T02420124  RH  048%=      5-min Rain = 0
KBY1 241549Z 34008KT 24/12 A2982 RMK A01 T02430123  RH  047%=      5-min Rain = 0
KBY1 241550Z 33009KT 24/12 A2982 RMK A01 T02420121  RH  047%=      5-min Rain = 0
KBY1 241551Z 35008KT 24/12 A2982 RMK A01 T02400123  RH  048%=      5-min Rain = 0
KBY1 241552Z 35009KT 24/12 A2982 RMK A01 T02430123  RH  047%=      5-min Rain = 0
KBY1 241553Z 35010KT 24/12 A2982 RMK A01 T02420122  RH  047%=      5-min Rain = 0
KBY1 241554Z 32010KT 24/12 A2982 RMK A01 T02390121  RH  048%=      5-min Rain = 0
KBY1 241555Z 32013KT 24/12 A2982 RMK A01 T02390122  RH  048%=      5-min Rain = 0
KBY1 241556Z 32012KT 24/12 A2982 RMK A01 T02390121  RH  048%=      5-min Rain = 0
KBY1 241557Z 31011KT 24/12 A2982 RMK A01 T02360120  RH  048%=      5-min Rain = 0
KBY1 241558Z 31010KT 24/12 A2982 RMK A01 T02350120  RH  048%=      5-min Rain = 0
KBY1 241559Z 31010KT 23/12 A2982 RMK A01 T02330119  RH  049%=      5-min Rain = 0
KBY1 241600Z 32010KT 23/12 A2983 RMK A01 T02330120  RH  049%=      5-min Rain = 0
KBY1 241601Z 32010KT 23/12 A2983 RMK A01 T02330118  RH  048%=      5-min Rain = 0
KBY1 241602Z 33010KT 23/12 A2983 RMK A01 T02330119  RH  049%=      5-min Rain = 0
KBY1 241603Z 32012KT 23/12 A2983 RMK A01 T02340119  RH  048%=      5-min Rain = 0
KBY1 241604Z 32009KT 24/12 A2983 RMK A01 T02350118  RH  048%=      5-min Rain = 0
KBY1 241605Z 31010KT 24/12 A2983 RMK A01 T02360118  RH  047%=      5-min Rain = 0
KBY1 241606Z 33010KT 24/12 A2983 RMK A01 T02360119  RH  048%=      5-min Rain = 0
KBY1 241607Z 35008KT 24/12 A2983 RMK A01 T02360118  RH  048%=      5-min Rain = 0
KBY1 241608Z 35006KT 24/12 A2983 RMK A01 T02370119  RH  047%=      5-min Rain = 0
KBY1 241609Z 34009KT 24/12 A2983 RMK A01 T02410119  RH  046%=      5-min Rain = 0
KBY1 241610Z 33005KT 24/12 A2983 RMK A01 T02410116  RH  046%=      5-min Rain = 0
KBY1 241611Z 33008G14KT 24/12 A2983 RMK A01 T02390117  RH  046%=      5-min Rain = 0
KBY1 241612Z 34011KT 24/12 A2983 RMK A01 T02400115  RH  045%=      5-min Rain = 0
KBY1 241613Z 35012KT 24/11 A2983 RMK A01 T02400113  RH  045%=      5-min Rain = 0
KBY1 241614Z 36009KT 24/11 A2983 RMK A01 T02380112  RH  045%=      5-min Rain = 0
KBY1 241615Z 00007KT 24/11 A2983 RMK A01 T02360112  RH  046%=      5-min Rain = 0
KBY1 241616Z 36005KT 24/11 A2983 RMK A01 T02360112  RH  045%=      5-min Rain = 0
KBY1 241617Z 36006KT 24/11 A2983 RMK A01 T02370113  RH  046%=      5-min Rain = 0
KBY1 241618Z 34007KT 24/11 A2983 RMK A01 T02380111  RH  045%=      5-min Rain = 0
KBY1 241619Z 00007KT 24/11 A2983 RMK A01 T02380109  RH  044%=      5-min Rain = 0
KBY1 241620Z 01005KT 24/11 A2983 RMK A01 T02360107  RH  044%=      5-min Rain = 0
KBY1 241621Z 35006KT 24/11 A2983 RMK A01 T02350109  RH  045%=      5-min Rain = 0
KBY1 241622Z 35006KT 24/11 A2984 RMK A01 T02380110  RH  045%=      5-min Rain = 0
KBY1 241623Z 34008KT 24/11 A2984 RMK A01 T02410110  RH  044%=      5-min Rain = 0
KBY1 241624Z 34005KT 24/11 A2984 RMK A01 T02400106  RH  043%=      5-min Rain = 0
KBY1 241625Z 35009G14KT 24/11 A2984 RMK A01 T02390107  RH  043%=      5-min Rain = 0
KBY1 241626Z 35007KT 24/11 A2984 RMK A01 T02400108  RH  043%=      5-min Rain = 0
KBY1 241627Z 00010KT 24/11 A2984 RMK A01 T02420107  RH  043%=      5-min Rain = 0
KBY1 241628Z 01008KT 24/11 A2984 RMK A01 T02400105  RH  042%=      5-min Rain = 0
KBY1 241629Z 33008KT 24/11 A2984 RMK A01 T02380105  RH  043%=      5-min Rain = 0
KBY1 241630Z 31008KT 24/10 A2984 RMK A01 T02380103  RH  043%=      5-min Rain = 0
KBY1 241631Z 33007KT 24/10 A2984 RMK A01 T02390103  RH  042%=      5-min Rain = 0
KBY1 241632Z 33006KT 24/10 A2984 RMK A01 T02380101  RH  042%=      5-min Rain = 0
KBY1 241633Z 33008KT 24/10 A2984 RMK A01 T02360103  RH  043%=      5-min Rain = 0
KBY1 241634Z 32010KT 24/10 A2984 RMK A01 T02360103  RH  043%=      5-min Rain = 0
KBY1 241635Z 32010KT 24/10 A2984 RMK A01 T02370103  RH  043%=      5-min Rain = 0
KBY1 241636Z 29005KT 24/10 A2984 RMK A01 T02370101  RH  042%=      5-min Rain = 0
KBY1 241637Z 36006KT 24/10 A2984 RMK A01 T02360102  RH  043%=      5-min Rain = 0
KBY1 241638Z 36005KT 24/10 A2984 RMK A01 T02370101  RH  042%=      5-min Rain = 0
KBY1 241639Z 36004KT 24/10 A2984 RMK A01 T02390099  RH  041%=      5-min Rain = 0
KBY1 241640Z 01003KT 24/10 A2984 RMK A01 T02380099  RH  041%=      5-min Rain = 0
KBY1 241641Z 02006KT 24/10 A2984 RMK A01 T02370101  RH  042%=      5-min Rain = 0
KBY1 241642Z 01005KT 24/10 A2984 RMK A01 T02410102  RH  041%=      5-min Rain = 0
KBY1 241643Z 32005KT 24/10 A2984 RMK A01 T02430100  RH  040%=      5-min Rain = 0
KBY1 241644Z 29004KT 24/10 A2984 RMK A01 T02430101  RH  041%=      5-min Rain = 0
KBY1 241645Z 01006KT 24/10 A2984 RMK A01 T02440101  RH  041%=      5-min Rain = 0
KBY1 241646Z 02004KT 24/10 A2984 RMK A01 T02440098  RH  040%=      5-min Rain = 0
KBY1 241647Z 35004G10KT 24/10 A2984 RMK A01 T02440100  RH  040%=      5-min Rain = 0
KBY1 241648Z 33008KT 25/10 A2984 RMK A01 T02460102  RH  040%=      5-min Rain = 0
KBY1 241649Z 31005KT 25/10 A2984 RMK A01 T02470100  RH  039%=      5-min Rain = 0
KBY1 241650Z 33004KT 25/10 A2984 RMK A01 T02470099  RH  039%=      5-min Rain = 0
KBY1 241651Z 33007KT 24/10 A2984 RMK A01 T02440098  RH  040%=      5-min Rain = 0
KBY1 241652Z 31005KT 24/10 A2984 RMK A01 T02420097  RH  040%=      5-min Rain = 0
KBY1 241653Z 33004KT 24/10 A2984 RMK A01 T02410099  RH  041%=      5-min Rain = 0
KBY1 241654Z 33003KT 24/10 A2984 RMK A01 T02430098  RH  040%=      5-min Rain = 0
KBY1 241655Z 33003KT 24/10 A2984 RMK A01 T02440097  RH  039%=      5-min Rain = 0
KBY1 241656Z 34002KT 25/10 A2984 RMK A01 T02450098  RH  039%=      5-min Rain = 0
KBY1 241657Z 33002KT 25/10 A2984 RMK A01 T02470098  RH  039%=      5-min Rain = 0
KBY1 241658Z 01004KT 25/10 A2984 RMK A01 T02470099  RH  039%=      5-min Rain = 0
KBY1 241659Z 36004KT 25/10 A2983 RMK A01 T02470099  RH  039%=      5-min Rain = 0
KBY1 241700Z 35005KT 25/10 A2983 RMK A01 T02460101  RH  040%=      5-min Rain = 0
KBY1 241701Z 34004KT 25/11 A2983 RMK A01 T02510105  RH  040%=      5-min Rain = 0
KBY1 241702Z 31006KT 26/11 A2983 RMK A01 T02560107  RH  039%=      5-min Rain = 0
KBY1 241703Z 30006KT 26/10 A2983 RMK A01 T02580103  RH  038%=      5-min Rain = 0
KBY1 241704Z 29007KT 25/10 A2983 RMK A01 T02540103  RH  039%=      5-min Rain = 0
KBY1 241705Z 32008KT 25/10 A2983 RMK A01 T02510103  RH  039%=      5-min Rain = 0
KBY1 241706Z 32009KT 25/10 A2983 RMK A01 T02500103  RH  040%=      5-min Rain = 0
KBY1 241707Z 33008KT 25/10 A2983 RMK A01 T02510103  RH  039%=      5-min Rain = 0
KBY1 241708Z 31010G16KT 25/10 A2983 RMK A01 T02500103  RH  039%=      5-min Rain = 0
KBY1 241709Z 31010KT 25/10 A2983 RMK A01 T02500101  RH  039%=      5-min Rain = 0
KBY1 241710Z 32007KT 25/10 A2983 RMK A01 T02490102  RH  039%=      5-min Rain = 0
KBY1 241711Z 33007KT 25/10 A2983 RMK A01 T02490102  RH  039%=      5-min Rain = 0
KBY1 241712Z 32006KT 25/10 A2983 RMK A01 T02500101  RH  039%=      5-min Rain = 0
KBY1 241713Z 31006KT 25/10 A2983 RMK A01 T02490103  RH  040%=      5-min Rain = 0
KBY1 241714Z 33007KT 25/10 A2983 RMK A01 T02500104  RH  040%=      5-min Rain = 0
KBY1 241715Z 33006KT 25/10 A2983 RMK A01 T02530104  RH  039%=      5-min Rain = 0
KBY1 241716Z 32006KT 25/10 A2983 RMK A01 T02530103  RH  039%=      5-min Rain = 0
KBY1 241717Z 32005KT 25/10 A2983 RMK A01 T02540103  RH  039%=      5-min Rain = 0
KBY1 241718Z 32003KT 26/11 A2983 RMK A01 T02550105  RH  039%=      5-min Rain = 0
KBY1 241719Z 34007KT 26/10 A2983 RMK A01 T02560103  RH  038%=      5-min Rain = 0
KBY1 241720Z 30008G13KT 25/10 A2983 RMK A01 T02540104  RH  039%=      5-min Rain = 0
KBY1 241721Z 30005KT 25/10 A2984 RMK A01 T02540104  RH  039%=      5-min Rain = 0
KBY1 241722Z 29007KT 26/10 A2983 RMK A01 T02550102  RH  038%=      5-min Rain = 0
KBY1 241723Z 28005KT 25/10 A2983 RMK A01 T02520100  RH  038%=      5-min Rain = 0
KBY1 241724Z 30004KT 25/10 A2983 RMK A01 T02510102  RH  039%=      5-min Rain = 0
KBY1 241725Z 34007KT 26/11 A2984 RMK A01 T02550107  RH  039%=      5-min Rain = 0
KBY1 241726Z 35004KT 26/11 A2984 RMK A01 T02620107  RH  038%=      5-min Rain = 0
KBY1 241727Z 34005KT 26/10 A2984 RMK A01 T02630104  RH  037%=      5-min Rain = 0
KBY1 241728Z 34008KT 26/10 A2984 RMK A01 T02620104  RH  037%=      5-min Rain = 0
KBY1 241729Z 35007KT 26/10 A2984 RMK A01 T02580103  RH  038%=      5-min Rain = 0
KBY1 241730Z 35004KT 25/10 A2984 RMK A01 T02540102  RH  038%=      5-min Rain = 0
KBY1 241731Z 34007G13KT 25/11 A2984 RMK A01 T02530105  RH  039%=      5-min Rain = 0
KBY1 241732Z 34010KT 26/10 A2984 RMK A01 T02550102  RH  038%=      5-min Rain = 0
KBY1 241733Z 35008KT 25/10 A2984 RMK A01 T02540101  RH  038%=      5-min Rain = 0
KBY1 241734Z 34006KT 25/10 A2984 RMK A01 T02530102  RH  038%=      5-min Rain = 0
KBY1 241735Z 34008KT 26/10 A2984 RMK A01 T02560102  RH  038%=      5-min Rain = 0
KBY1 241736Z 33006KT 26/10 A2984 RMK A01 T02580101  RH  037%=      5-min Rain = 0
KBY1 241737Z 32006KT 26/10 A2984 RMK A01 T02580100  RH  037%=      5-min Rain = 0
KBY1 241738Z 28004KT 26/10 A2984 RMK A01 T02580101  RH  037%=      5-min Rain = 0
KBY1 241739Z 30003KT 26/10 A2984 RMK A01 T02580101  RH  037%=      5-min Rain = 0
KBY1 241740Z 30003KT 26/10 A2984 RMK A01 T02590100  RH  037%=      5-min Rain = 0
KBY1 241741Z 01002KT 26/10 A2984 RMK A01 T02600100  RH  036%=      5-min Rain = 0
KBY1 241742Z 35004KT 26/10 A2984 RMK A01 T02610101  RH  037%=      5-min Rain = 0
KBY1 241743Z 31006KT 26/10 A2984 RMK A01 T02640103  RH  036%=      5-min Rain = 0
KBY1 241744Z 30008KT 27/10 A2984 RMK A01 T02650099  RH  035%=      5-min Rain = 0
KBY1 241745Z 31004KT 27/10 A2984 RMK A01 T02650101  RH  036%=      5-min Rain = 0
KBY1 241746Z 32009KT 27/10 A2984 RMK A01 T02670102  RH  036%=      5-min Rain = 0
KBY1 241747Z 32010KT 27/10 A2984 RMK A01 T02680099  RH  034%=      5-min Rain = 0
KBY1 241748Z 31006KT 27/10 A2984 RMK A01 T02650100  RH  035%=      5-min Rain = 0
KBY1 241749Z 29007KT 27/10 A2983 RMK A01 T02670100  RH  035%=      5-min Rain = 0
KBY1 241750Z 30008KT 27/10 A2983 RMK A01 T02650099  RH  035%=      5-min Rain = 0
KBY1 241751Z 29005KT 26/10 A2983 RMK A01 T02630098  RH  035%=      5-min Rain = 0
KBY1 241752Z 27005KT 26/10 A2983 RMK A01 T02600098  RH  036%=      5-min Rain = 0
KBY1 241753Z 26009KT 26/10 A2983 RMK A01 T02590099  RH  036%=      5-min Rain = 0
KBY1 241754Z 30005KT 26/10 A2983 RMK A01 T02580097  RH  036%=      5-min Rain = 0
KBY1 241755Z 30006G11KT 26/10 A2983 RMK A01 T02590101  RH  037%=      5-min Rain = 0
KBY1 241756Z 32009KT 27/10 A2983 RMK A01 T02650099  RH  035%=      5-min Rain = 0
KBY1 241757Z 32005KT 27/10 A2983 RMK A01 T02670097  RH  034%=      5-min Rain = 0
KBY1 241758Z 32005KT 27/10 A2983 RMK A01 T02660097  RH  034%=      5-min Rain = 0
KBY1 241759Z 32006G11KT 27/10 A2983 RMK A01 T02670098  RH  035%=      5-min Rain = 0
KBY1 241800Z 32010KT 27/10 A2983 RMK A01 T02680097  RH  034%=      5-min Rain = 0
KBY1 241801Z 31007G12KT 27/09 A2983 RMK A01 T02670094  RH  034%=      5-min Rain = 0
KBY1 241802Z 29006KT 27/10 A2983 RMK A01 T02660095  RH  034%=      5-min Rain = 0
KBY1 241803Z 29005KT 27/09 A2983 RMK A01 T02670093  RH  033%=      5-min Rain = 0
KBY1 241804Z 29004KT 27/09 A2983 RMK A01 T02650094  RH  034%=      5-min Rain = 0
KBY1 241805Z 30008KT 26/09 A2983 RMK A01 T02630094  RH  034%=      5-min Rain = 0
KBY1 241806Z 28006KT 26/09 A2983 RMK A01 T02600093  RH  035%=      5-min Rain = 0
KBY1 241807Z 26005KT 26/09 A2983 RMK A01 T02600093  RH  035%=      5-min Rain = 0
KBY1 241808Z 31006G11KT 26/09 A2983 RMK A01 T02610093  RH  035%=      5-min Rain = 0
KBY1 241809Z 34006KT 27/10 A2983 RMK A01 T02660095  RH  034%=      5-min Rain = 0
KBY1 241810Z 36005KT 27/09 A2983 RMK A01 T02710093  RH  033%=      5-min Rain = 0
KBY1 241811Z 01006KT 27/09 A2983 RMK A01 T02700089  RH  032%=      5-min Rain = 0
KBY1 241812Z 02002KT 27/09 A2983 RMK A01 T02650087  RH  033%=      5-min Rain = 0
KBY1 241813Z 04003KT 26/09 A2983 RMK A01 T02620090  RH  034%=      5-min Rain = 0
KBY1 241814Z 05006KT 26/09 A2983 RMK A01 T02630091  RH  034%=      5-min Rain = 0
KBY1 241815Z 04005KT 27/09 A2983 RMK A01 T02660093  RH  033%=      5-min Rain = 0
KBY1 241816Z 34005KT 27/09 A2983 RMK A01 T02680093  RH  033%=      5-min Rain = 0
KBY1 241817Z 34007KT 27/09 A2983 RMK A01 T02690094  RH  033%=      5-min Rain = 0
KBY1 241818Z 33005KT 27/09 A2983 RMK A01 T02700094  RH  033%=      5-min Rain = 0
KBY1 241819Z 31007KT 27/09 A2983 RMK A01 T02700091  RH  032%=      5-min Rain = 0
KBY1 241820Z 33007KT 27/09 A2982 RMK A01 T02690088  RH  032%=      5-min Rain = 0
KBY1 241821Z 31008KT 27/09 A2982 RMK A01 T02680087  RH  032%=      5-min Rain = 0
KBY1 241822Z 31007KT 27/09 A2982 RMK A01 T02680086  RH  032%=      5-min Rain = 0
KBY1 241823Z 30008KT 27/08 A2982 RMK A01 T02690084  RH  031%=      5-min Rain = 0
KBY1 241824Z 31006KT 27/08 A2982 RMK A01 T02690084  RH  031%=      5-min Rain = 0
KBY1 241825Z 29004KT 27/08 A2982 RMK A01 T02690083  RH  031%=      5-min Rain = 0
KBY1 241826Z 26002KT 27/08 A2982 RMK A01 T02680081  RH  031%=      5-min Rain = 0
KBY1 241827Z 22002KT 27/08 A2982 RMK A01 T02650081  RH  031%=      5-min Rain = 0
KBY1 241828Z 22002KT 26/08 A2982 RMK A01 T02630084  RH  032%=      5-min Rain = 0
KBY1 241829Z 33003KT 26/09 A2982 RMK A01 T02630087  RH  033%=      5-min Rain = 0
KBY1 241830Z 34006KT 27/09 A2982 RMK A01 T02670092  RH  033%=      5-min Rain = 0
KBY1 241831Z 35007KT 27/09 A2982 RMK A01 T02700091  RH  032%=      5-min Rain = 0
KBY1 241832Z 36008G13KT 27/09 A2982 RMK A01 T02710090  RH  032%=      5-min Rain = 0
KBY1 241833Z 34005KT 27/09 A2982 RMK A01 T02710090  RH  032%=      5-min Rain = 0
KBY1 241834Z 33004KT 27/09 A2982 RMK A01 T02710090  RH  032%=      5-min Rain = 0
KBY1 241835Z 35002KT 27/09 A2982 RMK A01 T02700090  RH  032%=      5-min Rain = 0
KBY1 241836Z 02004KT 27/09 A2982 RMK A01 T02700089  RH  032%=      5-min Rain = 0
KBY1 241837Z 33003KT 27/09 A2982 RMK A01 T02690092  RH  033%=      5-min Rain = 0
KBY1 241838Z 35004KT 27/09 A2982 RMK A01 T02710093  RH  033%=      5-min Rain = 0
KBY1 241839Z 02003KT 27/09 A2982 RMK A01 T02730090  RH  032%=      5-min Rain = 0
KBY1 241840Z 04004KT 27/09 A2982 RMK A01 T02730091  RH  032%=      5-min Rain = 0
KBY1 241841Z 04007KT 28/09 A2982 RMK A01 T02750090  RH  031%=      5-min Rain = 0
KBY1 241842Z 02006KT 27/09 A2982 RMK A01 T02740090  RH  031%=      5-min Rain = 0
KBY1 241843Z 02003KT 27/09 A2982 RMK A01 T02740089  RH  031%=      5-min Rain = 0
KBY1 241844Z 00003KT 27/09 A2982 RMK A01 T02730088  RH  031%=      5-min Rain = 0
KBY1 241845Z 04004KT 27/09 A2982 RMK A01 T02720091  RH  032%=      5-min Rain = 0
KBY1 241846Z 02004KT 28/09 A2981 RMK A01 T02770091  RH  031%=      5-min Rain = 0
KBY1 241847Z 01006KT 28/09 A2981 RMK A01 T02790089  RH  030%=      5-min Rain = 0
KBY1 241848Z 34007KT 28/09 A2981 RMK A01 T02780091  RH  031%=      5-min Rain = 0
KBY1 241849Z 30007KT 28/09 A2981 RMK A01 T02780090  RH  031%=      5-min Rain = 0
KBY1 241850Z 31006KT 28/09 A2981 RMK A01 T02780089  RH  031%=      5-min Rain = 0
KBY1 241851Z 34005KT 28/09 A2981 RMK A01 T02790085  RH  029%=      5-min Rain = 0
KBY1 241852Z 33006KT 28/08 A2981 RMK A01 T02770080  RH  029%=      5-min Rain = 0
KBY1 241853Z 29006KT 28/08 A2981 RMK A01 T02760080  RH  029%=      5-min Rain = 0
KBY1 241854Z 28003KT 28/08 A2981 RMK A01 T02750080  RH  029%=      5-min Rain = 0
KBY1 241855Z 33003KT 28/08 A2981 RMK A01 T02770083  RH  029%=      5-min Rain = 0
KBY1 241856Z 28005KT 28/08 A2981 RMK A01 T02780078  RH  028%=      5-min Rain = 0
KBY1 241857Z 29003KT 28/08 A2981 RMK A01 T02790082  RH  029%=      5-min Rain = 0
KBY1 241858Z 36004KT 28/08 A2981 RMK A01 T02780083  RH  029%=      5-min Rain = 0
KBY1 241859Z 01006KT 28/09 A2981 RMK A01 T02790086  RH  030%=      5-min Rain = 0
KBY1 241900Z 02005KT 28/08 A2981 RMK A01 T02800083  RH  029%=      5-min Rain = 0
KBY1 241901Z 00004KT 28/08 A2981 RMK A01 T02750082  RH  030%=      5-min Rain = 0
KBY1 241902Z 03002KT 27/09 A2981 RMK A01 T02730086  RH  031%=      5-min Rain = 0
KBY1 241903Z 35002KT 28/09 A2981 RMK A01 T02760087  RH  030%=      5-min Rain = 0
KBY1 241904Z 33007KT 28/08 A2981 RMK A01 T02760081  RH  029%=      5-min Rain = 0
KBY1 241905Z 33006KT 28/08 A2981 RMK A01 T02780084  RH  029%=      5-min Rain = 0
KBY1 241906Z 32004KT 28/08 A2981 RMK A01 T02790084  RH  029%=      5-min Rain = 0
KBY1 241907Z 34002KT 28/09 A2981 RMK A01 T02790085  RH  029%=      5-min Rain = 0
KBY1 241908Z 29003KT 28/09 A2981 RMK A01 T02790086  RH  030%=      5-min Rain = 0
KBY1 241909Z 30003KT 28/08 A2981 RMK A01 T02820084  RH  029%=      5-min Rain = 0
KBY1 241910Z 28005KT 28/08 A2981 RMK A01 T02830079  RH  028%=      5-min Rain = 0
KBY1 241911Z 28006KT 28/08 A2981 RMK A01 T02810078  RH  028%=      5-min Rain = 0
KBY1 241912Z 26004KT 28/08 A2981 RMK A01 T02790081  RH  029%=      5-min Rain = 0
KBY1 241913Z 30004KT 28/08 A2981 RMK A01 T02790082  RH  029%=      5-min Rain = 0
KBY1 241914Z 33006KT 28/08 A2981 RMK A01 T02820084  RH  029%=      5-min Rain = 0
KBY1 241915Z 35005KT 28/08 A2981 RMK A01 T02830082  RH  028%=      5-min Rain = 0
KBY1 241916Z 33005KT 28/08 A2981 RMK A01 T02840082  RH  028%=      5-min Rain = 0
KBY1 241917Z 34007KT 29/08 A2981 RMK A01 T02850080  RH  027%=      5-min Rain = 0
KBY1 241918Z 33006KT 29/08 A2981 RMK A01 T02870079  RH  027%=      5-min Rain = 0
KBY1 241919Z 34002KT 29/08 A2981 RMK A01 T02850076  RH  027%=      5-min Rain = 0
KBY1 241920Z 32000KT 28/08 A2981 RMK A01 T02830077  RH  027%=      5-min Rain = 0
KBY1 241921Z 29002KT 28/08 A2981 RMK A01 T02820077  RH  028%=      5-min Rain = 0
KBY1 241922Z 29002KT 29/08 A298 RMK A01 T02850078  RH  027%=      5-min Rain = 0
KBY1 241923Z 01004KT 29/08 A298 RMK A01 T02870080  RH  027%=      5-min Rain = 0
KBY1 241924Z 02007KT 29/08 A298 RMK A01 T02910079  RH  027%=      5-min Rain = 0
KBY1 241925Z 00006KT 29/08 A298 RMK A01 T02890075  RH  026%=      5-min Rain = 0
KBY1 241926Z 36004KT 29/08 A298 RMK A01 T02850076  RH  027%=      5-min Rain = 0
KBY1 241927Z 02002KT 28/07 A298 RMK A01 T02830074  RH  027%=      5-min Rain = 0
KBY1 241928Z 04004KT 28/08 A298 RMK A01 T02830076  RH  027%=      5-min Rain = 0
KBY1 241929Z 06004KT 28/08 A298 RMK A01 T02820076  RH  027%=      5-min Rain = 0
KBY1 241930Z 03004KT 28/08 A298 RMK A01 T02830077  RH  027%=      5-min Rain = 0
KBY1 241931Z 01006G11KT 28/07 A298 RMK A01 T02830074  RH  027%=      5-min Rain = 0
KBY1 241932Z 02006KT 28/08 A298 RMK A01 T02820075  RH  027%=      5-min Rain = 0
KBY1 241933Z 34004KT 28/08 A298 RMK A01 T02800077  RH  028%=      5-min Rain = 0
KBY1 241934Z 32006KT 28/08 A298 RMK A01 T02820080  RH  028%=      5-min Rain = 0
KBY1 241935Z 33007KT 29/08 A298 RMK A01 T02860080  RH  027%=      5-min Rain = 0
KBY1 241936Z 32005KT 29/08 A298 RMK A01 T02860079  RH  027%=      5-min Rain = 0
KBY1 241937Z 34003KT 29/08 A298 RMK A01 T02870082  RH  028%=      5-min Rain = 0
KBY1 241938Z 30003KT 29/08 A298 RMK A01 T02900079  RH  027%=      5-min Rain = 0
KBY1 241939Z 29002KT 29/08 A298 RMK A01 T02900077  RH  026%=      5-min Rain = 0
KBY1 241940Z 00004KT 29/08 A298 RMK A01 T02920077  RH  026%=      5-min Rain = 0
KBY1 241941Z 31003KT 29/08 A298 RMK A01 T02920076  RH  026%=      5-min Rain = 0
KBY1 241942Z 02003KT 29/08 A298 RMK A01 T02920075  RH  026%=      5-min Rain = 0
KBY1 241943Z 34003KT 30/07 A298 RMK A01 T02950068  RH  024%=      5-min Rain = 0
KBY1 241944Z 30002KT 29/07 A2979 RMK A01 T02940069  RH  024%=      5-min Rain = 0
KBY1 241945Z 02002KT 29/07 A2979 RMK A01 T02920068  RH  024%=      5-min Rain = 0
KBY1 241946Z 03002KT 29/07 A2979 RMK A01 T02890070  RH  025%=      5-min Rain = 0
KBY1 241947Z 02004KT 29/07 A2979 RMK A01 T02900074  RH  026%=      5-min Rain = 0
KBY1 241948Z 33005KT 29/08 A2979 RMK A01 T02940077  RH  026%=      5-min Rain = 0
KBY1 241949Z 33004KT 30/08 A2979 RMK A01 T02950076  RH  025%=      5-min Rain = 0
KBY1 241950Z 34005KT 30/07 A2979 RMK A01 T02960074  RH  025%=      5-min Rain = 0
KBY1 241951Z 01005KT 30/07 A2979 RMK A01 T02950074  RH  025%=      5-min Rain = 0
KBY1 241952Z 02003KT 29/07 A2979 RMK A01 T02940072  RH  025%=      5-min Rain = 0
KBY1 241953Z 00004KT 29/07 A2979 RMK A01 T02920071  RH  025%=      5-min Rain = 0
KBY1 241954Z 35002KT 29/07 A2979 RMK A01 T02910068  RH  024%=      5-min Rain = 0
KBY1 241955Z 02002KT 29/07 A2979 RMK A01 T02910069  RH  025%=      5-min Rain = 0
KBY1 241956Z 34003KT 29/07 A2979 RMK A01 T02940071  RH  025%=      5-min Rain = 0
KBY1 241957Z 33006KT 30/07 A2979 RMK A01 T02960070  RH  024%=      5-min Rain = 0
KBY1 241958Z 33006KT 30/07 A2979 RMK A01 T02970071  RH  024%=      5-min Rain = 0
KBY1 241959Z 34005KT 30/07 A2979 RMK A01 T02960071  RH  024%=      5-min Rain = 0
KBY1 242000Z 27005KT 30/07 A2979 RMK A01 T02960073  RH  025%=      5-min Rain = 0
KBY1 242001Z 31002KT 30/07 A2979 RMK A01 T02990071  RH  024%=      5-min Rain = 0
KBY1 242002Z 35001KT 30/07 A2979 RMK A01 T03000068  RH  023%=      5-min Rain = 0
KBY1 242003Z 26006KT 30/07 A2979 RMK A01 T03000070  RH  024%=      5-min Rain = 0
KBY1 242004Z 25007KT 30/07 A2979 RMK A01 T02980070  RH  024%=      5-min Rain = 0
KBY1 242005Z 27005KT 29/07 A2979 RMK A01 T02940068  RH  024%=      5-min Rain = 0
KBY1 242006Z 30004KT 29/07 A2979 RMK A01 T02920069  RH  025%=      5-min Rain = 0
KBY1 242007Z 30003KT 29/07 A2979 RMK A01 T02920069  RH  025%=      5-min Rain = 0
KBY1 242008Z 33002KT 29/07 A2979 RMK A01 T02930066  RH  024%=      5-min Rain = 0
KBY1 242009Z 30003KT 30/06 A2979 RMK A01 T02950064  RH  023%=      5-min Rain = 0
KBY1 242010Z 28003KT 30/06 A2979 RMK A01 T02950059  RH  023%=      5-min Rain = 0
KBY1 242011Z 28001KT 30/06 A2979 RMK A01 T02950060  RH  023%=      5-min Rain = 0
KBY1 242012Z 27004KT 29/06 A2979 RMK A01 T02940064  RH  023%=      5-min Rain = 0
KBY1 242013Z 27004KT 30/06 A2979 RMK A01 T02950063  RH  023%=      5-min Rain = 0
KBY1 242014Z 29002KT 30/06 A2979 RMK A01 T02950061  RH  023%=      5-min Rain = 0
KBY1 242015Z 03001KT 30/06 A2979 RMK A01 T02950061  RH  023%=      5-min Rain = 0
KBY1 242016Z 21003KT 30/06 A2979 RMK A01 T02950061  RH  023%=      5-min Rain = 0
KBY1 242017Z 22002KT 30/06 A2978 RMK A01 T02960060  RH  023%=      5-min Rain = 0
KBY1 242018Z 04001KT 30/06 A2978 RMK A01 T02950062  RH  023%=      5-min Rain = 0
KBY1 242019Z 30003KT 30/07 A2978 RMK A01 T02970065  RH  023%=      5-min Rain = 0
KBY1 242020Z 26006KT 30/06 A2978 RMK A01 T03000062  RH  022%=      5-min Rain = 0
KBY1 242021Z 23004KT 30/06 A2978 RMK A01 T03010057  RH  021%=      5-min Rain = 0
KBY1 242022Z 21002KT 30/06 A2978 RMK A01 T02980056  RH  022%=      5-min Rain = 0
KBY1 242023Z 24005G10KT 30/06 A2978 RMK A01 T02980059  RH  022%=      5-min Rain = 0
KBY1 242024Z 24007KT 30/06 A2978 RMK A01 T03020062  RH  022%=      5-min Rain = 0
KBY1 242025Z 24007KT 30/06 A2978 RMK A01 T03040062  RH  022%=      5-min Rain = 0
KBY1 242026Z 25006KT 30/06 A2978 RMK A01 T03040062  RH  022%=      5-min Rain = 0
KBY1 242027Z 24008KT 30/06 A2978 RMK A01 T03040063  RH  022%=      5-min Rain = 0
KBY1 242028Z 26005KT 30/06 A2978 RMK A01 T03040062  RH  022%=      5-min Rain = 0
KBY1 242029Z 25003KT 30/06 A2978 RMK A01 T03040064  RH  022%=      5-min Rain = 0
KBY1 242030Z 18006KT 31/07 A2978 RMK A01 T03060065  RH  022%=      5-min Rain = 0
KBY1 242031Z 17004KT 31/07 A2978 RMK A01 T03050065  RH  022%=      5-min Rain = 0
KBY1 242032Z 16002KT 31/06 A2978 RMK A01 T03050063  RH  022%=      5-min Rain = 0
KBY1 242033Z 17002KT 31/07 A2978 RMK A01 T03060067  RH  022%=      5-min Rain = 0
KBY1 242034Z 32005KT 31/07 A2978 RMK A01 T03070067  RH  022%=      5-min Rain = 0
KBY1 242035Z 33006KT 31/07 A2977 RMK A01 T03070068  RH  022%=      5-min Rain = 0
KBY1 242036Z 32005KT 31/07 A2977 RMK A01 T03070068  RH  022%=      5-min Rain = 0
KBY1 242037Z 32004KT 31/07 A2977 RMK A01 T03070068  RH  022%=      5-min Rain = 0
KBY1 242038Z 34005KT 31/07 A2977 RMK A01 T03070068  RH  022%=      5-min Rain = 0
KBY1 242039Z 01004KT 31/07 A2977 RMK A01 T03110069  RH  022%=      5-min Rain = 0
KBY1 242040Z 02004KT 31/07 A2977 RMK A01 T03130068  RH  022%=      5-min Rain = 0
KBY1 242041Z 36004KT 31/07 A2977 RMK A01 T03130066  RH  021%=      5-min Rain = 0
KBY1 242042Z 32003KT 31/07 A2977 RMK A01 T03110065  RH  021%=      5-min Rain = 0
KBY1 242043Z 34002KT 31/07 A2977 RMK A01 T03100067  RH  022%=      5-min Rain = 0
KBY1 242044Z 29006KT 31/06 A2977 RMK A01 T03110060  RH  021%=      5-min Rain = 0
KBY1 242045Z 30005KT 31/05 A2977 RMK A01 T03100050  RH  019%=      5-min Rain = 0
KBY1 242046Z 30005KT 31/05 A2977 RMK A01 T03110053  RH  020%=      5-min Rain = 0
KBY1 242047Z 28005KT 31/05 A2977 RMK A01 T03120050  RH  019%=      5-min Rain = 0
KBY1 242048Z 24005KT 31/05 A2977 RMK A01 T03110054  RH  020%=      5-min Rain = 0
KBY1 242049Z 24004KT 31/05 A2977 RMK A01 T03130047  RH  019%=      5-min Rain = 0
KBY1 242050Z 25005KT 31/05 A2977 RMK A01 T03120049  RH  019%=      5-min Rain = 0
KBY1 242051Z 24008KT 31/05 A2977 RMK A01 T03120048  RH  019%=      5-min Rain = 0
KBY1 242052Z 24006KT 31/05 A2977 RMK A01 T03110049  RH  019%=      5-min Rain = 0
KBY1 242053Z 25004KT 31/05 A2977 RMK A01 T03110046  RH  019%=      5-min Rain = 0
KBY1 242054Z 27002KT 31/05 A2977 RMK A01 T03090046  RH  019%=      5-min Rain = 0
KBY1 242055Z 23002KT 31/05 A2977 RMK A01 T03090047  RH  019%=      5-min Rain = 0
KBY1 242056Z 23008KT 31/05 A2977 RMK A01 T03110052  RH  020%=      5-min Rain = 0
KBY1 242057Z 20008KT 31/05 A2977 RMK A01 T03100054  RH  020%=      5-min Rain = 0
KBY1 242058Z 20008KT 31/05 A2977 RMK A01 T03080054  RH  020%=      5-min Rain = 0
KBY1 242059Z 18008KT 31/06 A2977 RMK A01 T03060055  RH  021%=      5-min Rain = 0
KBY1 242100Z 17007KT 30/06 A2976 RMK A01 T03030057  RH  021%=      5-min Rain = 0
KBY1 242101Z 18002KT 30/05 A2976 RMK A01 T03020054  RH  021%=      5-min Rain = 0
KBY1 242102Z 17005KT 30/06 A2976 RMK A01 T03020056  RH  021%=      5-min Rain = 0
KBY1 242103Z 18003KT 30/06 A2976 RMK A01 T03020056  RH  021%=      5-min Rain = 0
KBY1 242104Z 16003KT 30/06 A2976 RMK A01 T03040059  RH  021%=      5-min Rain = 0
KBY1 242105Z 16005KT 31/06 A2976 RMK A01 T03070059  RH  021%=      5-min Rain = 0
KBY1 242106Z 14005KT 31/06 A2976 RMK A01 T03070056  RH  021%=      5-min Rain = 0
KBY1 242107Z 15003KT 31/06 A2976 RMK A01 T03080058  RH  021%=      5-min Rain = 0
KBY1 242108Z 08003KT 31/06 A2976 RMK A01 T03090058  RH  021%=      5-min Rain = 0
KBY1 242109Z 08004KT 31/06 A2976 RMK A01 T03110061  RH  021%=      5-min Rain = 0
KBY1 242110Z 07006KT 31/06 A2976 RMK A01 T03110061  RH  021%=      5-min Rain = 0
KBY1 242111Z 09005KT 31/06 A2976 RMK A01 T03130060  RH  020%=      5-min Rain = 0
KBY1 242112Z 08005KT 31/06 A2976 RMK A01 T03130058  RH  020%=      5-min Rain = 0
KBY1 242113Z 06003KT 31/05 A2975 RMK A01 T03120054  RH  020%=      5-min Rain = 0
KBY1 242114Z 07005KT 31/06 A2975 RMK A01 T03090055  RH  020%=      5-min Rain = 0
KBY1 242115Z 07004KT 31/06 A2975 RMK A01 T03100056  RH  020%=      5-min Rain = 0
KBY1 242116Z 04002KT 31/05 A2975 RMK A01 T03110053  RH  020%=      5-min Rain = 0
KBY1 242117Z 06003KT 31/05 A2975 RMK A01 T03120054  RH  020%=      5-min Rain = 0
KBY1 242118Z 08004KT 31/05 A2975 RMK A01 T03120053  RH  020%=      5-min Rain = 0
KBY1 242119Z 08002KT 31/05 A2975 RMK A01 T03110054  RH  020%=      5-min Rain = 0
KBY1 242120Z 11005KT 31/05 A2975 RMK A01 T03110053  RH  020%=      5-min Rain = 0
KBY1 242121Z 13003KT 31/05 A2975 RMK A01 T03110054  RH  020%=      5-min Rain = 0
KBY1 242122Z 20004KT 31/05 A2975 RMK A01 T03110054  RH  020%=      5-min Rain = 0
KBY1 242123Z 26007KT 31/05 A2975 RMK A01 T03130052  RH  019%=      5-min Rain = 0
KBY1 242124Z 24009KT 31/05 A2975 RMK A01 T03140046  RH  018%=      5-min Rain = 0
KBY1 242125Z 25006KT 31/05 A2975 RMK A01 T03120047  RH  019%=      5-min Rain = 0
KBY1 242126Z 27007KT 31/05 A2975 RMK A01 T03120046  RH  019%=      5-min Rain = 0
KBY1 242127Z 27008KT 31/04 A2975 RMK A01 T03130044  RH  018%=      5-min Rain = 0
KBY1 242128Z 26008KT 31/05 A2975 RMK A01 T03120046  RH  019%=      5-min Rain = 0
KBY1 242129Z 24006KT 31/05 A2975 RMK A01 T03120049  RH  019%=      5-min Rain = 0
KBY1 242130Z 21006KT 31/05 A2975 RMK A01 T03140052  RH  019%=      5-min Rain = 0
KBY1 242131Z 20005KT 32/05 A2974 RMK A01 T03150050  RH  019%=      5-min Rain = 0
KBY1 242132Z 19004KT 31/05 A2974 RMK A01 T03130052  RH  019%=      5-min Rain = 0
KBY1 242133Z 19003KT 31/05 A2974 RMK A01 T03130049  RH  019%=      5-min Rain = 0
KBY1 242134Z 23007KT 31/05 A2974 RMK A01 T03130050  RH  019%=      5-min Rain = 0
KBY1 242135Z 25007KT 32/05 A2974 RMK A01 T03160048  RH  019%=      5-min Rain = 0
KBY1 242136Z 25007KT 32/05 A2974 RMK A01 T03170046  RH  018%=      5-min Rain = 0
KBY1 242137Z 28003KT 32/04 A2974 RMK A01 T03170044  RH  018%=      5-min Rain = 0
KBY1 242138Z 27004KT 32/04 A2974 RMK A01 T03160044  RH  018%=      5-min Rain = 0
KBY1 242139Z 25004KT 32/04 A2974 RMK A01 T03160044  RH  018%=      5-min Rain = 0
KBY1 242140Z 21003KT 32/05 A2974 RMK A01 T03170046  RH  018%=      5-min Rain = 0
KBY1 242141Z 29003KT 32/05 A2974 RMK A01 T03160046  RH  018%=      5-min Rain = 0
KBY1 242142Z 27003KT 32/04 A2974 RMK A01 T03160044  RH  018%=      5-min Rain = 0
KBY1 242143Z 27002KT 32/04 A2974 RMK A01 T03170044  RH  018%=      5-min Rain = 0
KBY1 242144Z 26005KT 32/05 A2973 RMK A01 T03180045  RH  018%=      5-min Rain = 0
KBY1 242145Z 25009KT 32/05 A2973 RMK A01 T03190045  RH  018%=      5-min Rain = 0
KBY1 242146Z 27007KT 32/04 A2973 RMK A01 T03170042  RH  018%=      5-min Rain = 0
KBY1 242147Z 26004KT 32/04 A2973 RMK A01 T03160043  RH  018%=      5-min Rain = 0
KBY1 242148Z 26010KT 32/05 A2973 RMK A01 T03180047  RH  018%=      5-min Rain = 0
KBY1 242149Z 26012KT 32/05 A2973 RMK A01 T03200045  RH  018%=      5-min Rain = 0
KBY1 242150Z 27009G14KT 32/05 A2973 RMK A01 T03170045  RH  018%=      5-min Rain = 0
KBY1 242151Z 30010KT 32/04 A2973 RMK A01 T03160043  RH  018%=      5-min Rain = 0
KBY1 242152Z 28006KT 32/04 A2973 RMK A01 T03150042  RH  018%=      5-min Rain = 0
KBY1 242153Z 27005KT 31/04 A2973 RMK A01 T03130043  RH  018%=      5-min Rain = 0
KBY1 242154Z 27010G19KT 31/04 A2972 RMK A01 T03140043  RH  018%=      5-min Rain = 0
KBY1 242155Z 27012KT 32/04 A2973 RMK A01 T03150044  RH  018%=      5-min Rain = 0
KBY1 242156Z 27009KT 32/04 A2973 RMK A01 T03170043  RH  018%=      5-min Rain = 0
KBY1 242157Z 27008KT 32/04 A2972 RMK A01 T03160041  RH  018%=      5-min Rain = 0
KBY1 242158Z 30011KT 32/04 A2972 RMK A01 T03160043  RH  018%=      5-min Rain = 0
KBY1 242159Z 30008KT 32/04 A2972 RMK A01 T03160043  RH  018%=      5-min Rain = 0
KBY1 242200Z 27008KT 32/04 A2972 RMK A01 T03160044  RH  018%=      5-min Rain = 0
KBY1 242201Z 27008KT 32/04 A2972 RMK A01 T03190041  RH  017%=      5-min Rain = 0
KBY1 242202Z 27009KT 32/04 A2972 RMK A01 T03190041  RH  017%=      5-min Rain = 0
KBY1 242203Z 26006KT 32/04 A2972 RMK A01 T03170042  RH  018%=      5-min Rain = 0
KBY1 242204Z 30010G15KT 32/04 A2972 RMK A01 T03180043  RH  018%=      5-min Rain = 0
KBY1 242205Z 30010KT 32/04 A2972 RMK A01 T03190040  RH  017%=      5-min Rain = 0
KBY1 242206Z 30007KT 32/04 A2972 RMK A01 T03160040  RH  017%=      5-min Rain = 0
KBY1 242207Z 30006KT 31/04 A2972 RMK A01 T03140041  RH  018%=      5-min Rain = 0
KBY1 242208Z 30008KT 32/04 A2972 RMK A01 T03170044  RH  018%=      5-min Rain = 0
KBY1 242209Z 27009KT 32/04 A2972 RMK A01 T03190043  RH  018%=      5-min Rain = 0
KBY1 242210Z 25008KT 32/05 A2972 RMK A01 T03210045  RH  018%=      5-min Rain = 0
KBY1 242211Z 26009KT 32/04 A2972 RMK A01 T03200042  RH  017%=      5-min Rain = 0
KBY1 242212Z 29005KT 32/04 A2972 RMK A01 T03180043  RH  018%=      5-min Rain = 0
KBY1 242213Z 30007KT 32/04 A2972 RMK A01 T03190043  RH  017%=      5-min Rain = 0
KBY1 242214Z 29004KT 32/04 A2972 RMK A01 T03200041  RH  017%=      5-min Rain = 0
KBY1 242215Z 28007KT 32/04 A2972 RMK A01 T03200043  RH  017%=      5-min Rain = 0
KBY1 242216Z 30006KT 32/04 A2972 RMK A01 T03200041  RH  017%=      5-min Rain = 0
KBY1 242217Z 31003KT 32/04 A2972 RMK A01 T03180040  RH  017%=      5-min Rain = 0
KBY1 242218Z 27003KT 32/04 A2972 RMK A01 T03170038  RH  017%=      5-min Rain = 0
KBY1 242219Z 29008KT 32/04 A2971 RMK A01 T03170040  RH  017%=      5-min Rain = 0
KBY1 242220Z 26009KT 32/04 A2971 RMK A01 T03180040  RH  017%=      5-min Rain = 0
KBY1 242221Z 25006KT 32/04 A2972 RMK A01 T03180042  RH  017%=      5-min Rain = 0
KBY1 242222Z 24005KT 32/04 A2972 RMK A01 T03170040  RH  017%=      5-min Rain = 0
KBY1 242223Z 23002KT 32/04 A2971 RMK A01 T03170042  RH  018%=      5-min Rain = 0
KBY1 242224Z 25003KT 32/04 A2971 RMK A01 T03180041  RH  017%=      5-min Rain = 0
KBY1 242225Z 23002KT 32/04 A2971 RMK A01 T03200041  RH  017%=      5-min Rain = 0
KBY1 242226Z 23005KT 32/04 A2971 RMK A01 T03210042  RH  017%=      5-min Rain = 0
KBY1 242227Z 24006KT 32/04 A2971 RMK A01 T03210042  RH  017%=      5-min Rain = 0
KBY1 242228Z 22005KT 32/04 A2971 RMK A01 T03190043  RH  018%=      5-min Rain = 0
KBY1 242229Z 21002KT 32/04 A2971 RMK A01 T03190043  RH  018%=      5-min Rain = 0
KBY1 242230Z 23003KT 32/04 A2971 RMK A01 T03220044  RH  017%=      5-min Rain = 0
KBY1 242231Z 33009G14KT 33/04 A2971 RMK A01 T03250042  RH  017%=      5-min Rain = 0
KBY1 242232Z 29010KT 33/04 A2971 RMK A01 T03250035  RH  016%=      5-min Rain = 0
KBY1 242233Z 29009KT 32/03 A2971 RMK A01 T03230031  RH  016%=      5-min Rain = 0
KBY1 242234Z 30008KT 32/03 A2971 RMK A01 T03220033  RH  016%=      5-min Rain = 0
KBY1 242235Z 27010G17KT 32/03 A2971 RMK A01 T03220033  RH  016%=      5-min Rain = 0
KBY1 242236Z 26011G16KT 32/03 A297 RMK A01 T03220032  RH  016%=      5-min Rain = 0
KBY1 242237Z 26008KT 32/03 A2971 RMK A01 T03210031  RH  016%=      5-min Rain = 0
KBY1 242238Z 25012KT 32/03 A297 RMK A01 T03170028  RH  016%=      5-min Rain = 0
KBY1 242239Z 25010KT 32/03 A297 RMK A01 T03150028  RH  016%=      5-min Rain = 0
KBY1 242240Z 24010KT 31/03 A297 RMK A01 T03140029  RH  016%=      5-min Rain = 0
KBY1 242241Z 24009KT 31/03 A297 RMK A01 T03120028  RH  016%=      5-min Rain = 0
KBY1 242242Z 22007KT 31/03 A297 RMK A01 T03110031  RH  017%=      5-min Rain = 0
KBY1 242243Z 21007KT 31/03 A297 RMK A01 T03100034  RH  017%=      5-min Rain = 0
KBY1 242244Z 21007KT 31/03 A297 RMK A01 T03110034  RH  017%=      5-min Rain = 0
KBY1 242245Z 21007KT 31/03 A297 RMK A01 T03110030  RH  017%=      5-min Rain = 0
KBY1 242246Z 22006KT 31/03 A297 RMK A01 T03090031  RH  017%=      5-min Rain = 0
KBY1 242247Z 23007KT 31/03 A297 RMK A01 T03090032  RH  017%=      5-min Rain = 0
KBY1 242248Z 22006KT 31/04 A297 RMK A01 T03090036  RH  018%=      5-min Rain = 0
KBY1 242249Z 24006KT 31/04 A297 RMK A01 T03090035  RH  018%=      5-min Rain = 0
KBY1 242250Z 25007KT 31/03 A297 RMK A01 T03100030  RH  017%=      5-min Rain = 0
KBY1 242251Z 25006KT 31/03 A297 RMK A01 T03110031  RH  017%=      5-min Rain = 0
KBY1 242252Z 25006KT 31/03 A297 RMK A01 T03120033  RH  017%=      5-min Rain = 0
KBY1 242253Z 26008KT 31/03 A297 RMK A01 T03120029  RH  017%=      5-min Rain = 0
KBY1 242254Z 26009KT 31/03 A297 RMK A01 T03110026  RH  016%=      5-min Rain = 0
KBY1 242255Z 25008KT 31/03 A297 RMK A01 T03100028  RH  017%=      5-min Rain = 0
KBY1 242256Z 26007KT 31/03 A297 RMK A01 T03090029  RH  017%=      5-min Rain = 0
KBY1 242257Z 26010KT 31/03 A297 RMK A01 T03100029  RH  017%=      5-min Rain = 0
KBY1 242258Z 26008KT 31/03 A297 RMK A01 T03100025  RH  016%=      5-min Rain = 0
KBY1 242259Z 28005KT 31/02 A297 RMK A01 T03080023  RH  016%=      5-min Rain = 0
KBY1 242300Z 30004KT 31/02 A297 RMK A01 T03070024  RH  016%=      5-min Rain = 0
KBY1 242301Z 28004KT 31/02 A297 RMK A01 T03070023  RH  016%=      5-min Rain = 0
KBY1 242302Z 28005KT 31/03 A297 RMK A01 T03060025  RH  017%=      5-min Rain = 0
KBY1 242303Z 30004KT 31/03 A297 RMK A01 T03060027  RH  017%=      5-min Rain = 0
KBY1 242304Z 29007KT 31/03 A2969 RMK A01 T03060027  RH  017%=      5-min Rain = 0
KBY1 242305Z 29008KT 31/02 A2969 RMK A01 T03060022  RH  016%=      5-min Rain = 0
KBY1 242306Z 27006KT 31/03 A2969 RMK A01 T03060025  RH  017%=      5-min Rain = 0
KBY1 242307Z 27009KT 31/03 A2969 RMK A01 T03060025  RH  017%=      5-min Rain = 0
KBY1 242308Z 27008KT 31/02 A2969 RMK A01 T03050022  RH  016%=      5-min Rain = 0
KBY1 242309Z 27007KT 31/02 A2969 RMK A01 T03050021  RH  016%=      5-min Rain = 0
KBY1 242310Z 26007KT 30/02 A2969 RMK A01 T03040022  RH  016%=      5-min Rain = 0
KBY1 242311Z 26007KT 30/02 A2969 RMK A01 T03040022  RH  016%=      5-min Rain = 0
KBY1 242312Z 25005KT 30/02 A2969 RMK A01 T03040022  RH  016%=      5-min Rain = 0
KBY1 242313Z 24006KT 30/02 A2969 RMK A01 T03040023  RH  017%=      5-min Rain = 0
KBY1 242314Z 28004KT 30/02 A2969 RMK A01 T03040023  RH  017%=      5-min Rain = 0
KBY1 242315Z 29004KT 30/02 A2969 RMK A01 T03040021  RH  016%=      5-min Rain = 0
KBY1 242316Z 29004KT 30/02 A2969 RMK A01 T03030022  RH  017%=      5-min Rain = 0
KBY1 242317Z 28003KT 30/02 A2969 RMK A01 T03040024  RH  017%=      5-min Rain = 0
KBY1 242318Z 30002KT 31/02 A2968 RMK A01 T03050022  RH  016%=      5-min Rain = 0
KBY1 242319Z 30001KT 31/02 A2968 RMK A01 T03050021  RH  016%=      5-min Rain = 0
KBY1 242320Z 30002KT 31/02 A2968 RMK A01 T03050022  RH  016%=      5-min Rain = 0
KBY1 242321Z 30002KT 31/02 A2968 RMK A01 T03050021  RH  016%=      5-min Rain = 0
KBY1 242322Z 31002KT 31/02 A2968 RMK A01 T03060020  RH  016%=      5-min Rain = 0
KBY1 242323Z 32003KT 31/02 A2968 RMK A01 T03060022  RH  016%=      5-min Rain = 0
KBY1 242324Z 32002KT 31/02 A2968 RMK A01 T03060022  RH  016%=      5-min Rain = 0
KBY1 242325Z 34002KT 31/02 A2968 RMK A01 T03060023  RH  016%=      5-min Rain = 0
KBY1 242326Z 30001KT 31/02 A2968 RMK A01 T03060021  RH  016%=      5-min Rain = 0
KBY1 242327Z 25001KT 31/02 A2967 RMK A01 T03070022  RH  016%=      5-min Rain = 0
KBY1 242328Z 17001KT 31/02 A2967 RMK A01 T03070018  RH  016%=      5-min Rain = 0
KBY1 242329Z 18000KT 31/02 A2967 RMK A01 T03080017  RH  016%=      5-min Rain = 0
KBY1 242330Z 19001KT 31/02 A2967 RMK A01 T03080021  RH  016%=      5-min Rain = 0
KBY1 242331Z 19001KT 31/02 A2967 RMK A01 T03090018  RH  016%=      5-min Rain = 0
KBY1 242332Z 23000KT 31/02 A2967 RMK A01 T03100016  RH  015%=      5-min Rain = 0
KBY1 242333Z 09000KT 31/02 A2967 RMK A01 T03110017  RH  015%=      5-min Rain = 0
KBY1 242334Z 07000KT 31/02 A2967 RMK A01 T03130015  RH  015%=      5-min Rain = 0
KBY1 242335Z 00000KT 32/02 A2967 RMK A01 T03160016  RH  015%=      5-min Rain = 0
KBY1 242336Z 19002KT 32/02 A2967 RMK A01 T03180021  RH  015%=      5-min Rain = 0
KBY1 242337Z 21002KT 32/03 A2967 RMK A01 T03200026  RH  015%=      5-min Rain = 0
KBY1 242338Z 23002KT 32/02 A2966 RMK A01 T03200023  RH  015%=      5-min Rain = 0
KBY1 242339Z 27003KT 32/02 A2966 RMK A01 T03190022  RH  015%=      5-min Rain = 0
KBY1 242340Z 26005KT 32/03 A2966 RMK A01 T03200026  RH  015%=      5-min Rain = 0
KBY1 242341Z 27004KT 32/02 A2966 RMK A01 T03210022  RH  015%=      5-min Rain = 0
KBY1 242342Z 24004KT 32/02 A2966 RMK A01 T03180021  RH  015%=      5-min Rain = 0
KBY1 242343Z 24004KT 32/02 A2966 RMK A01 T03160022  RH  015%=      5-min Rain = 0
KBY1 242344Z 23003KT 31/02 A2966 RMK A01 T03140019  RH  015%=      5-min Rain = 0
KBY1 242345Z 18001KT 31/01 A2966 RMK A01 T03120014  RH  015%=      5-min Rain = 0
KBY1 242346Z 14002KT 31/02 A2966 RMK A01 T03110015  RH  015%=      5-min Rain = 0
KBY1 242347Z 27004KT 31/02 A2966 RMK A01 T03110022  RH  016%=      5-min Rain = 0
KBY1 242348Z 29004KT 31/02 A2966 RMK A01 T03110022  RH  016%=      5-min Rain = 0
KBY1 242349Z 27005KT 31/01 A2966 RMK A01 T03110013  RH  015%=      5-min Rain = 0
KBY1 242350Z 25006KT 31/01 A2966 RMK A01 T03110014  RH  015%=      5-min Rain = 0
KBY1 242351Z 23004KT 31/02 A2966 RMK A01 T03100017  RH  015%=      5-min Rain = 0
KBY1 242352Z 21006KT 31/02 A2966 RMK A01 T03100020  RH  016%=      5-min Rain = 0
KBY1 242353Z 21005KT 31/02 A2966 RMK A01 T03090019  RH  016%=      5-min Rain = 0
KBY1 242354Z 20003KT 31/02 A2966 RMK A01 T03080018  RH  016%=      5-min Rain = 0
KBY1 242355Z 21003KT 31/02 A2966 RMK A01 T03080017  RH  016%=      5-min Rain = 0
KBY1 242356Z 24003KT 31/03 A2966 RMK A01 T03070025  RH  017%=      5-min Rain = 0
KBY1 242357Z 25005KT 31/02 A2966 RMK A01 T03070024  RH  016%=      5-min Rain = 0
KBY1 242358Z 25007KT 31/02 A2966 RMK A01 T03080020  RH  016%=      5-min Rain = 0
KBY1 242359Z 24005KT 31/02 A2966 RMK A01 T03080018  RH  016%=      5-min Rain = 0
KBY1 250000Z 21005KT 31/02 A2966 RMK A01 T03080022  RH  016%=      5-min Rain = 0
KBY1 250001Z 19005KT 31/03 A2966 RMK A01 T03070025  RH  017%=      5-min Rain = 0
KBY1 250002Z 19004KT 31/02 A2966 RMK A01 T03060024  RH  017%=      5-min Rain = 0
KBY1 250003Z 19003KT 31/03 A2965 RMK A01 T03050027  RH  017%=      5-min Rain = 0
KBY1 250004Z 20004KT 30/03 A2965 RMK A01 T03040027  RH  017%=      5-min Rain = 0
KBY1 250005Z 21004KT 30/03 A2965 RMK A01 T03040030  RH  017%=      5-min Rain = 0
KBY1 250006Z 17003KT 30/03 A2965 RMK A01 T03040028  RH  017%=      5-min Rain = 0
KBY1 250007Z 18003KT 30/02 A2965 RMK A01 T03040021  RH  016%=      5-min Rain = 0
KBY1 250008Z 19002KT 30/03 A2965 RMK A01 T03040034  RH  018%=      5-min Rain = 0
KBY1 250009Z 20003KT 30/04 A2965 RMK A01 T03040039  RH  019%=      5-min Rain = 0
KBY1 250010Z 20005KT 30/04 A2965 RMK A01 T03030037  RH  018%=      5-min Rain = 0
KBY1 250011Z 19006KT 30/03 A2965 RMK A01 T03030026  RH  017%=      5-min Rain = 0
KBY1 250012Z 19004KT 30/03 A2965 RMK A01 T03020030  RH  018%=      5-min Rain = 0
KBY1 250013Z 20004KT 30/04 A2964 RMK A01 T03020038  RH  019%=      5-min Rain = 0
KBY1 250014Z 19004KT 30/04 A2964 RMK A01 T03010037  RH  019%=      5-min Rain = 0
KBY1 250015Z 21003KT 30/04 A2964 RMK A01 T03000039  RH  019%=      5-min Rain = 0
KBY1 250016Z 20004KT 30/04 A2964 RMK A01 T02990035  RH  019%=      5-min Rain = 0
KBY1 250017Z 19006KT 30/03 A2964 RMK A01 T02990028  RH  018%=      5-min Rain = 0
KBY1 250018Z 19005KT 30/02 A2964 RMK A01 T02990024  RH  017%=      5-min Rain = 0
KBY1 250019Z 19004KT 30/02 A2964 RMK A01 T02990022  RH  017%=      5-min Rain = 0
KBY1 250020Z 18004KT 30/02 A2963 RMK A01 T02990024  RH  017%=      5-min Rain = 0
KBY1 250021Z 19004KT 30/03 A2963 RMK A01 T02990025  RH  017%=      5-min Rain = 0
KBY1 250022Z 21002KT 30/03 A2963 RMK A01 T03000031  RH  018%=      5-min Rain = 0
KBY1 250023Z 21003KT 30/03 A2963 RMK A01 T02990030  RH  018%=      5-min Rain = 0
KBY1 250024Z 21003KT 30/03 A2963 RMK A01 T03000032  RH  018%=      5-min Rain = 0
KBY1 250025Z 22003KT 30/03 A2963 RMK A01 T02990033  RH  018%=      5-min Rain = 0
KBY1 250026Z 22003KT 30/04 A2963 RMK A01 T03000038  RH  019%=      5-min Rain = 0
KBY1 250027Z 22004KT 30/03 A2963 RMK A01 T03000031  RH  018%=      5-min Rain = 0
KBY1 250028Z 20003KT 30/03 A2963 RMK A01 T03000030  RH  018%=      5-min Rain = 0
KBY1 250029Z 21001KT 30/04 A2963 RMK A01 T03000042  RH  019%=      5-min Rain = 0
KBY1 250030Z 22001KT 30/04 A2963 RMK A01 T03000040  RH  019%=      5-min Rain = 0
KBY1 250031Z 23002KT 30/04 A2963 RMK A01 T03000036  RH  019%=      5-min Rain = 0
KBY1 250032Z 21002KT 30/03 A2963 RMK A01 T03000033  RH  018%=      5-min Rain = 0
KBY1 250033Z 22001KT 30/04 A2963 RMK A01 T03010037  RH  019%=      5-min Rain = 0
KBY1 250034Z 24002KT 30/03 A2963 RMK A01 T03010034  RH  018%=      5-min Rain = 0
KBY1 250035Z 23002KT 30/03 A2963 RMK A01 T03030029  RH  017%=      5-min Rain = 0
KBY1 250036Z 24003KT 30/03 A2963 RMK A01 T03040026  RH  017%=      5-min Rain = 0
KBY1 250037Z 23002KT 31/02 A2963 RMK A01 T03060023  RH  016%=      5-min Rain = 0
KBY1 250038Z 20002KT 31/03 A2963 RMK A01 T03070034  RH  018%=      5-min Rain = 0
KBY1 250039Z 19003KT 31/04 A2963 RMK A01 T03080035  RH  018%=      5-min Rain = 0
KBY1 250040Z 20002KT 31/04 A2963 RMK A01 T03080035  RH  018%=      5-min Rain = 0
KBY1 250041Z 23002KT 31/03 A2963 RMK A01 T03070034  RH  018%=      5-min Rain = 0
KBY1 250042Z 22002KT 31/03 A2963 RMK A01 T03070033  RH  018%=      5-min Rain = 0
KBY1 250043Z 24002KT 31/03 A2963 RMK A01 T03060032  RH  017%=      5-min Rain = 0
KBY1 250044Z 24002KT 31/03 A2963 RMK A01 T03060034  RH  018%=      5-min Rain = 0
KBY1 250045Z 24002KT 31/02 A2963 RMK A01 T03060024  RH  017%=      5-min Rain = 0
KBY1 250046Z 25002KT 31/03 A2964 RMK A01 T03060026  RH  017%=      5-min Rain = 0
KBY1 250047Z 23000KT 31/04 A2964 RMK A01 T03060035  RH  018%=      5-min Rain = 0
KBY1 250048Z 20001KT 31/03 A2964 RMK A01 T03060034  RH  018%=      5-min Rain = 0
KBY1 250049Z 19002KT 31/03 A2964 RMK A01 T03060028  RH  017%=      5-min Rain = 0
KBY1 250050Z 19002KT 31/03 A2964 RMK A01 T03060033  RH  018%=      5-min Rain = 0
KBY1 250051Z 17001KT 31/03 A2964 RMK A01 T03060034  RH  018%=      5-min Rain = 0
KBY1 250052Z 15001KT 31/04 A2965 RMK A01 T03050037  RH  018%=      5-min Rain = 0
KBY1 250053Z 16002KT 31/04 A2965 RMK A01 T03050037  RH  018%=      5-min Rain = 0
KBY1 250054Z 15001KT 30/04 A2965 RMK A01 T03040037  RH  018%=      5-min Rain = 0
KBY1 250055Z 12002KT 30/03 A2965 RMK A01 T03040034  RH  018%=      5-min Rain = 0
KBY1 250056Z 13002KT 30/04 A2965 RMK A01 T03040036  RH  018%=      5-min Rain = 0
KBY1 250057Z 13002KT 30/03 A2965 RMK A01 T03030031  RH  018%=      5-min Rain = 0
KBY1 250058Z 13002KT 30/03 A2965 RMK A01 T03030033  RH  018%=      5-min Rain = 0
KBY1 250059Z 12003KT 30/03 A2965 RMK A01 T03020034  RH  018%=      5-min Rain = 0
KBY1 250100Z 13003KT 30/04 A2965 RMK A01 T03020038  RH  019%=      5-min Rain = 0
KBY1 250101Z 12003KT 30/04 A2965 RMK A01 T03010039  RH  019%=      5-min Rain = 0
KBY1 250102Z 09003KT 30/05 A2965 RMK A01 T03010048  RH  020%=      5-min Rain = 0
KBY1 250103Z 08003KT 30/06 A2965 RMK A01 T02980060  RH  022%=      5-min Rain = 0
KBY1 250104Z 08003KT 30/06 A2965 RMK A01 T02950063  RH  023%=      5-min Rain = 0
KBY1 250105Z 09003KT 29/06 A2965 RMK A01 T02930056  RH  022%=      5-min Rain = 0
KBY1 250106Z 08003KT 29/05 A2965 RMK A01 T02920054  RH  022%=      5-min Rain = 0
KBY1 250107Z 08003KT 29/05 A2965 RMK A01 T02910053  RH  022%=      5-min Rain = 0
KBY1 250108Z 07003KT 29/05 A2965 RMK A01 T02900053  RH  022%=      5-min Rain = 0
KBY1 250109Z 07003KT 29/05 A2965 RMK A01 T02900052  RH  022%=      5-min Rain = 0
KBY1 250110Z 08003KT 29/05 A2966 RMK A01 T02900051  RH  022%=      5-min Rain = 0
KBY1 250111Z 08004KT 29/05 A2966 RMK A01 T02890053  RH  022%=      5-min Rain = 0
KBY1 250112Z 08004KT 29/05 A2966 RMK A01 T02880053  RH  023%=      5-min Rain = 0
KBY1 250113Z 08004KT 29/05 A2966 RMK A01 T02870052  RH  022%=      5-min Rain = 0
KBY1 250114Z 07004KT 29/05 A2966 RMK A01 T02870052  RH  023%=      5-min Rain = 0
KBY1 250115Z 08004KT 29/05 A2966 RMK A01 T02860054  RH  023%=      5-min Rain = 0
KBY1 250116Z 07005KT 29/06 A2966 RMK A01 T02850056  RH  023%=      5-min Rain = 0
KBY1 250117Z 07005KT 28/06 A2966 RMK A01 T02840055  RH  023%=      5-min Rain = 0
KBY1 250118Z 07004KT 28/06 A2966 RMK A01 T02830055  RH  024%=      5-min Rain = 0
KBY1 250119Z 07004KT 28/06 A2966 RMK A01 T02820055  RH  024%=      5-min Rain = 0
KBY1 250120Z 08004KT 28/06 A2966 RMK A01 T02820055  RH  024%=      5-min Rain = 0
KBY1 250121Z 08004KT 28/06 A2966 RMK A01 T02820055  RH  024%=      5-min Rain = 0
KBY1 250122Z 07004KT 28/06 A2966 RMK A01 T02820055  RH  024%=      5-min Rain = 0
KBY1 250123Z 07004KT 28/06 A2965 RMK A01 T02810055  RH  024%=      5-min Rain = 0
KBY1 250124Z 08004KT 28/05 A2965 RMK A01 T02810054  RH  023%=      5-min Rain = 0
KBY1 250125Z 08004KT 28/05 A2965 RMK A01 T02810050  RH  023%=      5-min Rain = 0
KBY1 250126Z 08003KT 28/05 A2965 RMK A01 T02810049  RH  023%=      5-min Rain = 0
KBY1 250127Z 08003KT 28/05 A2965 RMK A01 T02810051  RH  023%=      5-min Rain = 0
KBY1 250128Z 08003KT 28/05 A2965 RMK A01 T02810051  RH  023%=      5-min Rain = 0
KBY1 250129Z 07003KT 28/05 A2965 RMK A01 T02810049  RH  023%=      5-min Rain = 0
KBY1 250130Z 07003KT 28/05 A2965 RMK A01 T02800048  RH  023%=      5-min Rain = 0
KBY1 250131Z 08003KT 28/05 A2965 RMK A01 T02800047  RH  023%=      5-min Rain = 0
KBY1 250132Z 07004KT 28/05 A2965 RMK A01 T02800047  RH  023%=      5-min Rain = 0
KBY1 250133Z 07004KT 28/05 A2965 RMK A01 T02800048  RH  023%=      5-min Rain = 0
KBY1 250134Z 06005KT 28/05 A2965 RMK A01 T02790046  RH  023%=      5-min Rain = 0
KBY1 250135Z 07005KT 28/05 A2965 RMK A01 T02790045  RH  022%=      5-min Rain = 0
KBY1 250136Z 07005KT 28/04 A2965 RMK A01 T02790044  RH  022%=      5-min Rain = 0
KBY1 250137Z 07005KT 28/04 A2965 RMK A01 T02790043  RH  022%=      5-min Rain = 0
KBY1 250138Z 07004KT 28/04 A2965 RMK A01 T02780043  RH  022%=      5-min Rain = 0
KBY1 250139Z 07005KT 28/04 A2965 RMK A01 T02770044  RH  022%=      5-min Rain = 0
KBY1 250140Z 07005KT 28/04 A2965 RMK A01 T02770044  RH  023%=      5-min Rain = 0
KBY1 250141Z 07004KT 28/05 A2965 RMK A01 T02760045  RH  023%=      5-min Rain = 0
KBY1 250142Z 07005KT 28/05 A2965 RMK A01 T02750047  RH  023%=      5-min Rain = 0
KBY1 250143Z 08004KT 28/05 A2965 RMK A01 T02750049  RH  024%=      5-min Rain = 0
KBY1 250144Z 09004KT 27/05 A2965 RMK A01 T02740049  RH  024%=      5-min Rain = 0
KBY1 250145Z 10005KT 27/06 A2965 RMK A01 T02720055  RH  025%=      5-min Rain = 0
KBY1 250146Z 11006KT 27/06 A2965 RMK A01 T02690057  RH  026%=      5-min Rain = 0
KBY1 250147Z 09007KT 27/06 A2965 RMK A01 T02670055  RH  026%=      5-min Rain = 0
KBY1 250148Z 09009KT 27/05 A2965 RMK A01 T02660052  RH  025%=      5-min Rain = 0
KBY1 250149Z 09008KT 27/05 A2965 RMK A01 T02680054  RH  026%=      5-min Rain = 0
KBY1 250150Z 10011KT 27/06 A2964 RMK A01 T02690058  RH  026%=      5-min Rain = 0
KBY1 250151Z 09008KT 27/06 A2964 RMK A01 T02700060  RH  026%=      5-min Rain = 0
KBY1 250152Z 08008KT 27/06 A2964 RMK A01 T02710060  RH  026%=      5-min Rain = 0
KBY1 250153Z 08007KT 27/06 A2964 RMK A01 T02710058  RH  026%=      5-min Rain = 0
KBY1 250154Z 08007KT 27/06 A2964 RMK A01 T02690056  RH  026%=      5-min Rain = 0
KBY1 250155Z 08008KT 27/06 A2964 RMK A01 T02680057  RH  026%=      5-min Rain = 0
KBY1 250156Z 08007KT 27/06 A2964 RMK A01 T02670058  RH  026%=      5-min Rain = 0
KBY1 250157Z 09008KT 27/06 A2964 RMK A01 T02670059  RH  027%=      5-min Rain = 0
KBY1 250158Z 09008KT 27/06 A2964 RMK A01 T02660061  RH  027%=      5-min Rain = 0
KBY1 250159Z 09007KT 27/06 A2964 RMK A01 T02660062  RH  027%=      5-min Rain = 0
KBY1 250200Z 09006KT 27/06 A2964 RMK A01 T02650062  RH  027%=      5-min Rain = 0
KBY1 250201Z 09006KT 27/06 A2964 RMK A01 T02650063  RH  028%=      5-min Rain = 0
KBY1 250202Z 10007KT 26/06 A2964 RMK A01 T02640063  RH  028%=      5-min Rain = 0
KBY1 250203Z 10007KT 26/06 A2964 RMK A01 T02640064  RH  028%=      5-min Rain = 0
KBY1 250204Z 10006KT 26/06 A2965 RMK A01 T02640064  RH  028%=      5-min Rain = 0
KBY1 250205Z 11005KT 26/06 A2965 RMK A01 T02630064  RH  028%=      5-min Rain = 0
KBY1 250206Z 10005KT 26/07 A2965 RMK A01 T02630065  RH  028%=      5-min Rain = 0
KBY1 250207Z 11004KT 26/07 A2965 RMK A01 T02620065  RH  028%=      5-min Rain = 0
KBY1 250208Z 11005KT 26/07 A2965 RMK A01 T02620066  RH  029%=      5-min Rain = 0
KBY1 250209Z 11005KT 26/07 A2965 RMK A01 T02600066  RH  029%=      5-min Rain = 0
KBY1 250210Z 11004KT 26/07 A2965 RMK A01 T02590067  RH  029%=      5-min Rain = 0
KBY1 250211Z 11004KT 26/07 A2965 RMK A01 T02580067  RH  029%=      5-min Rain = 0
KBY1 250212Z 11004KT 26/07 A2965 RMK A01 T02570067  RH  030%=      5-min Rain = 0
KBY1 250213Z 11004KT 26/07 A2965 RMK A01 T02560067  RH  030%=      5-min Rain = 0
KBY1 250214Z 10004KT 26/07 A2965 RMK A01 T02560068  RH  030%=      5-min Rain = 0
KBY1 250215Z 10004KT 26/07 A2965 RMK A01 T02550068  RH  030%=      5-min Rain = 0
KBY1 250216Z 10004KT 25/07 A2965 RMK A01 T02540068  RH  030%=      5-min Rain = 0
KBY1 250217Z 11004KT 25/07 A2965 RMK A01 T02530067  RH  031%=      5-min Rain = 0
KBY1 250218Z 11004KT 25/07 A2966 RMK A01 T02530068  RH  031%=      5-min Rain = 0
KBY1 250219Z 11004KT 25/07 A2966 RMK A01 T02520068  RH  031%=      5-min Rain = 0
KBY1 250220Z 11003KT 25/07 A2966 RMK A01 T02520068  RH  031%=      5-min Rain = 0
KBY1 250221Z 11004KT 25/07 A2966 RMK A01 T02510068  RH  031%=      5-min Rain = 0
KBY1 250222Z 11004KT 25/07 A2966 RMK A01 T02510068  RH  031%=      5-min Rain = 0
KBY1 250223Z 11004KT 25/07 A2966 RMK A01 T02500067  RH  031%=      5-min Rain = 0
KBY1 250224Z 11005KT 25/07 A2966 RMK A01 T02490068  RH  031%=      5-min Rain = 0
KBY1 250225Z 11005KT 25/07 A2966 RMK A01 T02480068  RH  032%=      5-min Rain = 0
KBY1 250226Z 10005KT 25/07 A2966 RMK A01 T02460068  RH  032%=      5-min Rain = 0
KBY1 250227Z 10005KT 25/07 A2966 RMK A01 T02450068  RH  032%=      5-min Rain = 0
KBY1 250228Z 10005KT 24/07 A2967 RMK A01 T02440068  RH  033%=      5-min Rain = 0
KBY1 250229Z 10005KT 24/07 A2967 RMK A01 T02430069  RH  033%=      5-min Rain = 0
KBY1 250230Z 09005KT 24/07 A2967 RMK A01 T02420069  RH  033%=      5-min Rain = 0
KBY1 250231Z 09005KT 24/07 A2967 RMK A01 T02400069  RH  033%=      5-min Rain = 0
KBY1 250232Z 08005KT 24/07 A2967 RMK A01 T02400069  RH  033%=      5-min Rain = 0
KBY1 250233Z 08005KT 24/07 A2967 RMK A01 T02390069  RH  034%=      5-min Rain = 0
KBY1 250234Z 09006KT 24/07 A2967 RMK A01 T02370070  RH  034%=      5-min Rain = 0
KBY1 250235Z 09008KT 24/07 A2967 RMK A01 T02360069  RH  034%=      5-min Rain = 0
KBY1 250236Z 10008KT 24/07 A2967 RMK A01 T02370069  RH  034%=      5-min Rain = 0
KBY1 250237Z 10007KT 24/07 A2967 RMK A01 T02390069  RH  033%=      5-min Rain = 0
KBY1 250238Z 11009KT 24/07 A2968 RMK A01 T02410068  RH  033%=      5-min Rain = 0
KBY1 250239Z 11007KT 24/07 A2968 RMK A01 T02440067  RH  032%=      5-min Rain = 0
KBY1 250240Z 12008KT 25/07 A2968 RMK A01 T02450066  RH  032%=      5-min Rain = 0
KBY1 250241Z 12006KT 25/07 A2968 RMK A01 T02450065  RH  032%=      5-min Rain = 0
KBY1 250242Z 11005KT 25/07 A2968 RMK A01 T02450065  RH  031%=      5-min Rain = 0
KBY1 250243Z 10006KT 25/07 A2968 RMK A01 T02450065  RH  032%=      5-min Rain = 0
KBY1 250244Z 11006KT 24/07 A2968 RMK A01 T02440065  RH  032%=      5-min Rain = 0
KBY1 250245Z 10007KT 24/07 A2968 RMK A01 T02430065  RH  032%=      5-min Rain = 0
KBY1 250246Z 11006KT 24/06 A2968 RMK A01 T02430064  RH  032%=      5-min Rain = 0
KBY1 250247Z 10006KT 24/06 A2968 RMK A01 T02440063  RH  031%=      5-min Rain = 0
KBY1 250248Z 11006KT 24/06 A2968 RMK A01 T02440063  RH  031%=      5-min Rain = 0
KBY1 250249Z 10007KT 25/06 A2968 RMK A01 T02450063  RH  031%=      5-min Rain = 0
KBY1 250250Z 10006KT 25/06 A2968 RMK A01 T02450062  RH  031%=      5-min Rain = 0
KBY1 250251Z 10006KT 25/06 A2968 RMK A01 T02450062  RH  031%=      5-min Rain = 0
KBY1 250252Z 10007KT 25/06 A2968 RMK A01 T02450063  RH  031%=      5-min Rain = 0
KBY1 250253Z 10007KT 24/06 A2968 RMK A01 T02440063  RH  031%=      5-min Rain = 0
KBY1 250254Z 10006KT 24/06 A2968 RMK A01 T02440063  RH  031%=      5-min Rain = 0
KBY1 250255Z 10006KT 24/06 A2968 RMK A01 T02430062  RH  031%=      5-min Rain = 0
KBY1 250256Z 10007KT 24/06 A2968 RMK A01 T02430063  RH  031%=      5-min Rain = 0
KBY1 250257Z 10006KT 24/06 A2968 RMK A01 T02420062  RH  031%=      5-min Rain = 0
KBY1 250258Z 10007KT 24/06 A2968 RMK A01 T02410061  RH  031%=      5-min Rain = 0
KBY1 250259Z 09007KT 24/06 A2969 RMK A01 T02420062  RH  031%=      5-min Rain = 0
KBY1 250300Z 10006KT 24/06 A2969 RMK A01 T02410061  RH  031%=      5-min Rain = 0
KBY1 250301Z 10005KT 24/06 A2969 RMK A01 T02410062  RH  032%=      5-min Rain = 0
KBY1 250302Z 10005KT 24/06 A2969 RMK A01 T02400061  RH  032%=      5-min Rain = 0
KBY1 250303Z 10005KT 24/06 A2969 RMK A01 T02400062  RH  032%=      5-min Rain = 0
KBY1 250304Z 10005KT 24/06 A2969 RMK A01 T02390061  RH  032%=      5-min Rain = 0
KBY1 250305Z 10004KT 24/06 A2969 RMK A01 T02390061  RH  032%=      5-min Rain = 0
KBY1 250306Z 10004KT 24/06 A2969 RMK A01 T02380061  RH  032%=      5-min Rain = 0
KBY1 250307Z 10005KT 24/06 A2969 RMK A01 T02380062  RH  032%=      5-min Rain = 0
KBY1 250308Z 11005KT 24/06 A2969 RMK A01 T02370062  RH  032%=      5-min Rain = 0
KBY1 250309Z 10005KT 24/06 A297 RMK A01 T02370062  RH  032%=      5-min Rain = 0
KBY1 250310Z 10005KT 24/06 A297 RMK A01 T02360062  RH  032%=      5-min Rain = 0
KBY1 250311Z 10005KT 24/06 A297 RMK A01 T02350062  RH  033%=      5-min Rain = 0
KBY1 250312Z 09006KT 23/06 A297 RMK A01 T02340062  RH  033%=      5-min Rain = 0
KBY1 250313Z 09005KT 23/06 A297 RMK A01 T02340062  RH  033%=      5-min Rain = 0
KBY1 250314Z 09006KT 23/06 A297 RMK A01 T02330061  RH  033%=      5-min Rain = 0
KBY1 250315Z 09007KT 23/06 A297 RMK A01 T02330061  RH  033%=      5-min Rain = 0
KBY1 250316Z 09007KT 23/06 A297 RMK A01 T02330061  RH  033%=      5-min Rain = 0
KBY1 250317Z 09008KT 23/06 A297 RMK A01 T02330061  RH  033%=      5-min Rain = 0
KBY1 250318Z 10009KT 23/06 A297 RMK A01 T02330061  RH  033%=      5-min Rain = 0
KBY1 250319Z 10010KT 23/06 A297 RMK A01 T02340061  RH  033%=      5-min Rain = 0
KBY1 250320Z 10009KT 23/06 A297 RMK A01 T02340061  RH  033%=      5-min Rain = 0
KBY1 250321Z 10008KT 23/06 A297 RMK A01 T02340062  RH  033%=      5-min Rain = 0
KBY1 250322Z 10009KT 23/06 A297 RMK A01 T02340062  RH  033%=      5-min Rain = 0
KBY1 250323Z 09009KT 23/06 A297 RMK A01 T02340062  RH  033%=      5-min Rain = 0
KBY1 250324Z 09009KT 23/06 A297 RMK A01 T02340062  RH  033%=      5-min Rain = 0
KBY1 250325Z 09009KT 23/06 A2969 RMK A01 T02340063  RH  033%=      5-min Rain = 0
KBY1 250326Z 09009KT 23/06 A2969 RMK A01 T02340063  RH  033%=      5-min Rain = 0
KBY1 250327Z 09009KT 23/06 A2969 RMK A01 T02340063  RH  033%=      5-min Rain = 0
KBY1 250328Z 09009KT 23/06 A2969 RMK A01 T02330064  RH  034%=      5-min Rain = 0
KBY1 250329Z 09009KT 23/06 A2969 RMK A01 T02330064  RH  034%=      5-min Rain = 0
KBY1 250330Z 10008KT 23/06 A2969 RMK A01 T02320064  RH  034%=      5-min Rain = 0
KBY1 250331Z 09006KT 23/07 A2969 RMK A01 T02310065  RH  034%=      5-min Rain = 0
KBY1 250332Z 10008KT 23/07 A297 RMK A01 T02310065  RH  034%=      5-min Rain = 0
KBY1 250333Z 09008KT 23/07 A297 RMK A01 T02300065  RH  034%=      5-min Rain = 0
KBY1 250334Z 09008KT 23/07 A297 RMK A01 T02300065  RH  035%=      5-min Rain = 0
KBY1 250335Z 10008KT 23/07 A297 RMK A01 T02290065  RH  035%=      5-min Rain = 0
KBY1 250336Z 10008KT 23/07 A297 RMK A01 T02290065  RH  035%=      5-min Rain = 0
KBY1 250337Z 10007KT 23/07 A297 RMK A01 T02280066  RH  035%=      5-min Rain = 0
KBY1 250338Z 10007KT 23/07 A297 RMK A01 T02270066  RH  035%=      5-min Rain = 0
KBY1 250339Z 10009KT 23/07 A2971 RMK A01 T02260066  RH  035%=      5-min Rain = 0
KBY1 250340Z 10008KT 23/07 A2971 RMK A01 T02270067  RH  036%=      5-min Rain = 0
KBY1 250341Z 10008KT 23/07 A2971 RMK A01 T02260067  RH  036%=      5-min Rain = 0
KBY1 250342Z 09009KT 23/07 A2971 RMK A01 T02260067  RH  036%=      5-min Rain = 0
KBY1 250343Z 09010KT 23/07 A2971 RMK A01 T02250067  RH  036%=      5-min Rain = 0
KBY1 250344Z 09010KT 23/07 A2971 RMK A01 T02260068  RH  036%=      5-min Rain = 0
KBY1 250345Z 09009KT 23/07 A2971 RMK A01 T02250068  RH  036%=      5-min Rain = 0
KBY1 250346Z 08009KT 23/07 A2971 RMK A01 T02250068  RH  036%=      5-min Rain = 0
KBY1 250347Z 08008KT 23/07 A2971 RMK A01 T02250069  RH  037%=      5-min Rain = 0
KBY1 250348Z 08007KT 22/07 A2971 RMK A01 T02240069  RH  037%=      5-min Rain = 0
KBY1 250349Z 08007KT 22/07 A2971 RMK A01 T02230070  RH  037%=      5-min Rain = 0
KBY1 250350Z 09007KT 22/07 A2971 RMK A01 T02230070  RH  037%=      5-min Rain = 0
KBY1 250351Z 08007KT 22/07 A2971 RMK A01 T02230070  RH  037%=      5-min Rain = 0
KBY1 250352Z 09007KT 22/07 A2971 RMK A01 T02230070  RH  037%=      5-min Rain = 0
KBY1 250353Z 09008KT 22/07 A2971 RMK A01 T02220070  RH  037%=      5-min Rain = 0
KBY1 250354Z 09007KT 22/07 A2971 RMK A01 T02220070  RH  037%=      5-min Rain = 0
KBY1 250355Z 09008KT 22/07 A2971 RMK A01 T02220071  RH  038%=      5-min Rain = 0
KBY1 250356Z 09007KT 22/07 A2971 RMK A01 T02210071  RH  038%=      5-min Rain = 0
KBY1 250357Z 09007KT 22/07 A2971 RMK A01 T02210071  RH  038%=      5-min Rain = 0
KBY1 250358Z 09009KT 22/07 A2971 RMK A01 T02210071  RH  038%=      5-min Rain = 0
KBY1 250359Z 09008KT 22/07 A2971 RMK A01 T02210071  RH  038%=      5-min Rain = 0
KBY1 250400Z 10007KT 22/07 A2971 RMK A01 T02210072  RH  038%=      5-min Rain = 0
KBY1 250401Z 09006KT 22/07 A2971 RMK A01 T02210072  RH  038%=      5-min Rain = 0
KBY1 250402Z 09006KT 22/07 A2971 RMK A01 T02210072  RH  038%=      5-min Rain = 0
KBY1 250403Z 09008KT 22/07 A2971 RMK A01 T02200072  RH  038%=      5-min Rain = 0
KBY1 250404Z 09009KT 22/07 A2971 RMK A01 T02200072  RH  039%=      5-min Rain = 0
KBY1 250405Z 08008KT 22/07 A2971 RMK A01 T02200073  RH  039%=      5-min Rain = 0
KBY1 250406Z 08008KT 22/07 A2971 RMK A01 T02200073  RH  039%=      5-min Rain = 0
KBY1 250407Z 08007KT 22/07 A2971 RMK A01 T02190073  RH  039%=      5-min Rain = 0
KBY1 250408Z 08008KT 22/07 A2971 RMK A01 T02190073  RH  039%=      5-min Rain = 0
KBY1 250409Z 07007KT 22/07 A2971 RMK A01 T02180073  RH  039%=      5-min Rain = 0
KBY1 250410Z 09007KT 22/07 A2971 RMK A01 T02180073  RH  039%=      5-min Rain = 0
KBY1 250411Z 07006KT 22/07 A2971 RMK A01 T02190073  RH  039%=      5-min Rain = 0
KBY1 250412Z 08007KT 22/07 A2971 RMK A01 T02180073  RH  039%=      5-min Rain = 0
KBY1 250413Z 08006KT 22/07 A2972 RMK A01 T02180072  RH  039%=      5-min Rain = 0
KBY1 250414Z 07007KT 22/07 A2972 RMK A01 T02180073  RH  039%=      5-min Rain = 0
KBY1 250415Z 08006KT 22/07 A2972 RMK A01 T02180073  RH  039%=      5-min Rain = 0
KBY1 250416Z 07006KT 22/07 A2972 RMK A01 T02180073  RH  039%=      5-min Rain = 0
KBY1 250417Z 07005KT 22/07 A2972 RMK A01 T02170073  RH  039%=      5-min Rain = 0
KBY1 250418Z 07005KT 22/07 A2972 RMK A01 T02170073  RH  039%=      5-min Rain = 0
KBY1 250419Z 06005KT 22/07 A2972 RMK A01 T02160072  RH  039%=      5-min Rain = 0
KBY1 250420Z 05006KT 22/07 A2973 RMK A01 T02160072  RH  039%=      5-min Rain = 0
KBY1 250421Z 04006KT 22/07 A2973 RMK A01 T02170072  RH  039%=      5-min Rain = 0
KBY1 250422Z 03008KT 22/07 A2974 RMK A01 T02180072  RH  039%=      5-min Rain = 0
KBY1 250423Z 02009KT 22/07 A2974 RMK A01 T02190071  RH  038%=      5-min Rain = 0
KBY1 250424Z 01010KT 22/07 A2975 RMK A01 T02190071  RH  038%=      5-min Rain = 0
KBY1 250425Z 01010KT 22/07 A2976 RMK A01 T02200071  RH  038%=      5-min Rain = 0
KBY1 250426Z 01010KT 22/07 A2976 RMK A01 T02190071  RH  038%=      5-min Rain = 0
KBY1 250427Z 01012G17KT 22/07 A2976 RMK A01 T02180071  RH  038%=      5-min Rain = 0
KBY1 250428Z 02015KT 22/07 A2977 RMK A01 T02180071  RH  039%=      5-min Rain = 0
KBY1 250429Z 02013KT 22/07 A2977 RMK A01 T02180071  RH  039%=      5-min Rain = 0
KBY1 250430Z 03014G19KT 22/07 A2977 RMK A01 T02180071  RH  039%=      5-min Rain = 0
KBY1 250431Z 04015KT 22/07 A2977 RMK A01 T02180072  RH  039%=      5-min Rain = 0
KBY1 250432Z 04016KT 22/07 A2977 RMK A01 T02170073  RH  039%=      5-min Rain = 0
KBY1 250433Z 05012KT 22/07 A2977 RMK A01 T02160073  RH  040%=      5-min Rain = 0
KBY1 250434Z 05014KT 22/07 A2977 RMK A01 T02150073  RH  040%=      5-min Rain = 0
KBY1 250435Z 06011KT 22/07 A2977 RMK A01 T02150073  RH  040%=      5-min Rain = 0
KBY1 250436Z 05011KT 22/07 A2977 RMK A01 T02150074  RH  040%=      5-min Rain = 0
KBY1 250437Z 04013KT 21/07 A2978 RMK A01 T02140074  RH  040%=      5-min Rain = 0
KBY1 250438Z 04014KT 21/07 A2978 RMK A01 T02140074  RH  040%=      5-min Rain = 0
KBY1 250439Z 04014G19KT 21/07 A2979 RMK A01 T02140074  RH  040%=      5-min Rain = 0
KBY1 250440Z 05013G19KT 22/07 A2979 RMK A01 T02150074  RH  040%=      5-min Rain = 0
KBY1 250441Z 03017G27KT 22/07 A2979 RMK A01 T02160074  RH  040%=      5-min Rain = 0
KBY1 250442Z 04018KT 22/08 A2979 RMK A01 T02160075  RH  040%=      5-min Rain = 0
KBY1 250443Z 04015KT 22/07 A298 RMK A01 T02160074  RH  040%=      5-min Rain = 0
KBY1 250444Z 04014G21KT 22/08 A298 RMK A01 T02160075  RH  040%=      5-min Rain = 0
KBY1 250445Z 05015G20KT 22/07 A298 RMK A01 T02160074  RH  040%=      5-min Rain = 0
KBY1 250446Z 05017G22KT 22/07 A298 RMK A01 T02170074  RH  040%=      5-min Rain = 0
KBY1 250447Z 06017KT 22/07 A298 RMK A01 T02170074  RH  040%=      5-min Rain = 0
KBY1 250448Z 06018G23KT 22/07 A2981 RMK A01 T02170074  RH  040%=      5-min Rain = 0
KBY1 250449Z 06014G19KT 22/07 A2981 RMK A01 T02170074  RH  040%=      5-min Rain = 0
KBY1 250450Z 06018KT 22/08 A2981 RMK A01 T02170075  RH  040%=      5-min Rain = 0
KBY1 250451Z 05016G21KT 22/08 A2981 RMK A01 T02160075  RH  040%=      5-min Rain = 0
KBY1 250452Z 05017KT 22/08 A2982 RMK A01 T02160075  RH  040%=      5-min Rain = 0
KBY1 250453Z 04015G21KT 22/08 A2982 RMK A01 T02160075  RH  040%=      5-min Rain = 0
KBY1 250454Z 04017KT 22/08 A2982 RMK A01 T02160075  RH  040%=      5-min Rain = 0
KBY1 250455Z 03020G25KT 22/08 A2982 RMK A01 T02160075  RH  040%=      5-min Rain = 0
KBY1 250456Z 04013KT 22/08 A2982 RMK A01 T02160075  RH  040%=      5-min Rain = 0
KBY1 250457Z 04015G22KT 22/08 A2982 RMK A01 T02150075  RH  040%=      5-min Rain = 0
KBY1 250458Z 04014KT 22/08 A2982 RMK A01 T02150076  RH  041%=      5-min Rain = 0
KBY1 250459Z 05013G18KT 21/08 A2982 RMK A01 T02140076  RH  041%=      5-min Rain = 0

Page generated in 0.0699 seconds.